<?xml version="1.0" encoding="UTF-8" standalone="no" ?>
<gpx xmlns="http://www.topografix.com/GPX/1/1" xmlns:xsi="http://www.w3.org/2001/XMLSchema-instance" xsi:schemaLocation="http://www.topografix.com/GPX/1/1 http://www.topografix.com/GPX/1/1/gpx.xsd" version="1.1" creator="VisuGPX - https://www.visugpx.com">
  <metadata>
    <name>Autour de Suzette</name>
    <desc><![CDATA[Balade autour de Suzette en passant par le col de la Chaine. ]]></desc>
  </metadata>
  <trk>
    <name><![CDATA[2018-01-15 14-57-44]]></name>
    <trkseg>
      <trkpt lat="44.16854" lon="5.06876">
        <ele>391.87</ele>
        <time>2018-01-15T08:20:49Z</time>
      </trkpt>
      <trkpt lat="44.16853" lon="5.06876">
        <ele>391.39</ele>
        <time>2018-01-15T08:21:20Z</time>
      </trkpt>
      <trkpt lat="44.16854" lon="5.06876">
        <ele>390.91</ele>
        <time>2018-01-15T08:21:50Z</time>
      </trkpt>
      <trkpt lat="44.16853" lon="5.06875">
        <ele>390.91</ele>
        <time>2018-01-15T08:22:20Z</time>
      </trkpt>
      <trkpt lat="44.16853" lon="5.06876">
        <ele>390.91</ele>
        <time>2018-01-15T08:22:50Z</time>
      </trkpt>
      <trkpt lat="44.16852" lon="5.06874">
        <ele>390.91</ele>
        <time>2018-01-15T08:23:20Z</time>
      </trkpt>
      <trkpt lat="44.16851" lon="5.06875">
        <ele>390.91</ele>
        <time>2018-01-15T08:23:50Z</time>
      </trkpt>
      <trkpt lat="44.16851" lon="5.06877">
        <ele>390.91</ele>
        <time>2018-01-15T08:24:20Z</time>
      </trkpt>
      <trkpt lat="44.16852" lon="5.06877">
        <ele>390.91</ele>
        <time>2018-01-15T08:24:50Z</time>
      </trkpt>
      <trkpt lat="44.16852" lon="5.06874">
        <ele>390.91</ele>
        <time>2018-01-15T08:25:20Z</time>
      </trkpt>
      <trkpt lat="44.16852" lon="5.06874">
        <ele>390.91</ele>
        <time>2018-01-15T08:25:50Z</time>
      </trkpt>
      <trkpt lat="44.16852" lon="5.06874">
        <ele>390.91</ele>
        <time>2018-01-15T08:26:20Z</time>
      </trkpt>
      <trkpt lat="44.1685" lon="5.06872">
        <ele>390.91</ele>
        <time>2018-01-15T08:26:50Z</time>
      </trkpt>
      <trkpt lat="44.1685" lon="5.06875">
        <ele>390.91</ele>
        <time>2018-01-15T08:27:20Z</time>
      </trkpt>
      <trkpt lat="44.16849" lon="5.06872">
        <ele>390.91</ele>
        <time>2018-01-15T08:27:50Z</time>
      </trkpt>
      <trkpt lat="44.16849" lon="5.06869">
        <ele>390.91</ele>
        <time>2018-01-15T08:28:20Z</time>
      </trkpt>
      <trkpt lat="44.1685" lon="5.06876">
        <ele>390.91</ele>
        <time>2018-01-15T08:28:50Z</time>
      </trkpt>
      <trkpt lat="44.16868" lon="5.06865">
        <ele>391.39</ele>
        <time>2018-01-15T08:29:20Z</time>
      </trkpt>
      <trkpt lat="44.16878" lon="5.06857">
        <ele>391.39</ele>
        <time>2018-01-15T08:29:50Z</time>
      </trkpt>
      <trkpt lat="44.16852" lon="5.0687">
        <ele>390.91</ele>
        <time>2018-01-15T08:30:20Z</time>
      </trkpt>
      <trkpt lat="44.16845" lon="5.06872">
        <ele>390.91</ele>
        <time>2018-01-15T08:30:50Z</time>
      </trkpt>
      <trkpt lat="44.1682" lon="5.06885">
        <ele>390.91</ele>
        <time>2018-01-15T08:31:20Z</time>
      </trkpt>
      <trkpt lat="44.16799" lon="5.06904">
        <ele>389.47</ele>
        <time>2018-01-15T08:31:50Z</time>
      </trkpt>
      <trkpt lat="44.16777" lon="5.06934">
        <ele>386.59</ele>
        <time>2018-01-15T08:32:20Z</time>
      </trkpt>
      <trkpt lat="44.16756" lon="5.06967">
        <ele>383.22</ele>
        <time>2018-01-15T08:32:50Z</time>
      </trkpt>
      <trkpt lat="44.16757" lon="5.07004">
        <ele>377.94</ele>
        <time>2018-01-15T08:33:20Z</time>
      </trkpt>
      <trkpt lat="44.16792" lon="5.06999">
        <ele>374.57</ele>
        <time>2018-01-15T08:33:50Z</time>
      </trkpt>
      <trkpt lat="44.16826" lon="5.06996">
        <ele>373.13</ele>
        <time>2018-01-15T08:34:20Z</time>
      </trkpt>
      <trkpt lat="44.16828" lon="5.07023">
        <ele>371.69</ele>
        <time>2018-01-15T08:34:50Z</time>
      </trkpt>
      <trkpt lat="44.16818" lon="5.07057">
        <ele>367.84</ele>
        <time>2018-01-15T08:35:20Z</time>
      </trkpt>
      <trkpt lat="44.16802" lon="5.07093">
        <ele>364</ele>
        <time>2018-01-15T08:35:50Z</time>
      </trkpt>
      <trkpt lat="44.16782" lon="5.07126">
        <ele>361.11</ele>
        <time>2018-01-15T08:36:20Z</time>
      </trkpt>
      <trkpt lat="44.16763" lon="5.07164">
        <ele>363.52</ele>
        <time>2018-01-15T08:36:50Z</time>
      </trkpt>
      <trkpt lat="44.16746" lon="5.07204">
        <ele>365.44</ele>
        <time>2018-01-15T08:37:20Z</time>
      </trkpt>
      <trkpt lat="44.16723" lon="5.07229">
        <ele>364.48</ele>
        <time>2018-01-15T08:37:50Z</time>
      </trkpt>
      <trkpt lat="44.16746" lon="5.07262">
        <ele>361.59</ele>
        <time>2018-01-15T08:38:20Z</time>
      </trkpt>
      <trkpt lat="44.16773" lon="5.07294">
        <ele>359.19</ele>
        <time>2018-01-15T08:38:50Z</time>
      </trkpt>
      <trkpt lat="44.16802" lon="5.07315">
        <ele>356.79</ele>
        <time>2018-01-15T08:39:20Z</time>
      </trkpt>
      <trkpt lat="44.16833" lon="5.07308">
        <ele>353.9</ele>
        <time>2018-01-15T08:39:50Z</time>
      </trkpt>
      <trkpt lat="44.16864" lon="5.07315">
        <ele>351.02</ele>
        <time>2018-01-15T08:40:20Z</time>
      </trkpt>
      <trkpt lat="44.16885" lon="5.07353">
        <ele>347.17</ele>
        <time>2018-01-15T08:40:50Z</time>
      </trkpt>
      <trkpt lat="44.16909" lon="5.07374">
        <ele>343.81</ele>
        <time>2018-01-15T08:41:20Z</time>
      </trkpt>
      <trkpt lat="44.16917" lon="5.07397">
        <ele>342.37</ele>
        <time>2018-01-15T08:41:50Z</time>
      </trkpt>
      <trkpt lat="44.16894" lon="5.07423">
        <ele>342.37</ele>
        <time>2018-01-15T08:42:20Z</time>
      </trkpt>
      <trkpt lat="44.16865" lon="5.07447">
        <ele>336.6</ele>
        <time>2018-01-15T08:42:50Z</time>
      </trkpt>
      <trkpt lat="44.16853" lon="5.07489">
        <ele>332.75</ele>
        <time>2018-01-15T08:43:20Z</time>
      </trkpt>
      <trkpt lat="44.16855" lon="5.07533">
        <ele>326.99</ele>
        <time>2018-01-15T08:43:50Z</time>
      </trkpt>
      <trkpt lat="44.16853" lon="5.07578">
        <ele>320.26</ele>
        <time>2018-01-15T08:44:20Z</time>
      </trkpt>
      <trkpt lat="44.16844" lon="5.07619">
        <ele>315.93</ele>
        <time>2018-01-15T08:44:50Z</time>
      </trkpt>
      <trkpt lat="44.1682" lon="5.07653">
        <ele>316.41</ele>
        <time>2018-01-15T08:45:20Z</time>
      </trkpt>
      <trkpt lat="44.16817" lon="5.07656">
        <ele>315.45</ele>
        <time>2018-01-15T08:45:50Z</time>
      </trkpt>
      <trkpt lat="44.16815" lon="5.07654">
        <ele>315.45</ele>
        <time>2018-01-15T08:46:20Z</time>
      </trkpt>
      <trkpt lat="44.16815" lon="5.07655">
        <ele>315.45</ele>
        <time>2018-01-15T08:46:50Z</time>
      </trkpt>
      <trkpt lat="44.16814" lon="5.07653">
        <ele>315.45</ele>
        <time>2018-01-15T08:47:20Z</time>
      </trkpt>
      <trkpt lat="44.16811" lon="5.07666">
        <ele>315.45</ele>
        <time>2018-01-15T08:47:50Z</time>
      </trkpt>
      <trkpt lat="44.16797" lon="5.07701">
        <ele>312.09</ele>
        <time>2018-01-15T08:48:20Z</time>
      </trkpt>
      <trkpt lat="44.16782" lon="5.07732">
        <ele>311.12</ele>
        <time>2018-01-15T08:48:50Z</time>
      </trkpt>
      <trkpt lat="44.16777" lon="5.07764">
        <ele>308.72</ele>
        <time>2018-01-15T08:49:20Z</time>
      </trkpt>
      <trkpt lat="44.16786" lon="5.07782">
        <ele>308.24</ele>
        <time>2018-01-15T08:49:50Z</time>
      </trkpt>
      <trkpt lat="44.16789" lon="5.07823">
        <ele>308.24</ele>
        <time>2018-01-15T08:50:20Z</time>
      </trkpt>
      <trkpt lat="44.16779" lon="5.07856">
        <ele>311.6</ele>
        <time>2018-01-15T08:50:50Z</time>
      </trkpt>
      <trkpt lat="44.16771" lon="5.0789">
        <ele>316.41</ele>
        <time>2018-01-15T08:51:20Z</time>
      </trkpt>
      <trkpt lat="44.16769" lon="5.07913">
        <ele>316.89</ele>
        <time>2018-01-15T08:51:50Z</time>
      </trkpt>
      <trkpt lat="44.16778" lon="5.07936">
        <ele>317.37</ele>
        <time>2018-01-15T08:52:20Z</time>
      </trkpt>
      <trkpt lat="44.16779" lon="5.07935">
        <ele>316.89</ele>
        <time>2018-01-15T08:52:50Z</time>
      </trkpt>
      <trkpt lat="44.16779" lon="5.07936">
        <ele>316.89</ele>
        <time>2018-01-15T08:53:20Z</time>
      </trkpt>
      <trkpt lat="44.16779" lon="5.07936">
        <ele>316.89</ele>
        <time>2018-01-15T08:53:50Z</time>
      </trkpt>
      <trkpt lat="44.16779" lon="5.07935">
        <ele>316.89</ele>
        <time>2018-01-15T08:54:20Z</time>
      </trkpt>
      <trkpt lat="44.16784" lon="5.07935">
        <ele>316.89</ele>
        <time>2018-01-15T08:54:50Z</time>
      </trkpt>
      <trkpt lat="44.16796" lon="5.07937">
        <ele>321.7</ele>
        <time>2018-01-15T08:55:20Z</time>
      </trkpt>
      <trkpt lat="44.16776" lon="5.07934">
        <ele>316.41</ele>
        <time>2018-01-15T08:55:50Z</time>
      </trkpt>
      <trkpt lat="44.16778" lon="5.07948">
        <ele>314.97</ele>
        <time>2018-01-15T08:56:20Z</time>
      </trkpt>
      <trkpt lat="44.1678" lon="5.07968">
        <ele>311.6</ele>
        <time>2018-01-15T08:56:50Z</time>
      </trkpt>
      <trkpt lat="44.16806" lon="5.07992">
        <ele>309.68</ele>
        <time>2018-01-15T08:57:20Z</time>
      </trkpt>
      <trkpt lat="44.16819" lon="5.08009">
        <ele>312.57</ele>
        <time>2018-01-15T08:57:50Z</time>
      </trkpt>
      <trkpt lat="44.16833" lon="5.08038">
        <ele>315.45</ele>
        <time>2018-01-15T08:58:20Z</time>
      </trkpt>
      <trkpt lat="44.16857" lon="5.08054">
        <ele>316.89</ele>
        <time>2018-01-15T08:58:50Z</time>
      </trkpt>
      <trkpt lat="44.1688" lon="5.08057">
        <ele>320.26</ele>
        <time>2018-01-15T08:59:20Z</time>
      </trkpt>
      <trkpt lat="44.16902" lon="5.08072">
        <ele>321.7</ele>
        <time>2018-01-15T08:59:50Z</time>
      </trkpt>
      <trkpt lat="44.16921" lon="5.08085">
        <ele>325.06</ele>
        <time>2018-01-15T09:00:20Z</time>
      </trkpt>
      <trkpt lat="44.16944" lon="5.08089">
        <ele>326.99</ele>
        <time>2018-01-15T09:00:50Z</time>
      </trkpt>
      <trkpt lat="44.16971" lon="5.0809">
        <ele>326.99</ele>
        <time>2018-01-15T09:01:20Z</time>
      </trkpt>
      <trkpt lat="44.16994" lon="5.08086">
        <ele>324.1</ele>
        <time>2018-01-15T09:01:50Z</time>
      </trkpt>
      <trkpt lat="44.17021" lon="5.08065">
        <ele>320.74</ele>
        <time>2018-01-15T09:02:20Z</time>
      </trkpt>
      <trkpt lat="44.17044" lon="5.0804">
        <ele>316.89</ele>
        <time>2018-01-15T09:02:50Z</time>
      </trkpt>
      <trkpt lat="44.17064" lon="5.08023">
        <ele>311.12</ele>
        <time>2018-01-15T09:03:20Z</time>
      </trkpt>
      <trkpt lat="44.17092" lon="5.08009">
        <ele>305.84</ele>
        <time>2018-01-15T09:03:50Z</time>
      </trkpt>
      <trkpt lat="44.17114" lon="5.08041">
        <ele>300.07</ele>
        <time>2018-01-15T09:04:20Z</time>
      </trkpt>
      <trkpt lat="44.17143" lon="5.0805">
        <ele>297.67</ele>
        <time>2018-01-15T09:04:50Z</time>
      </trkpt>
      <trkpt lat="44.17176" lon="5.0804">
        <ele>296.7</ele>
        <time>2018-01-15T09:05:20Z</time>
      </trkpt>
      <trkpt lat="44.17206" lon="5.08043">
        <ele>295.26</ele>
        <time>2018-01-15T09:05:50Z</time>
      </trkpt>
      <trkpt lat="44.17234" lon="5.0803">
        <ele>292.38</ele>
        <time>2018-01-15T09:06:20Z</time>
      </trkpt>
      <trkpt lat="44.17242" lon="5.08059">
        <ele>296.22</ele>
        <time>2018-01-15T09:06:50Z</time>
      </trkpt>
      <trkpt lat="44.1721" lon="5.0808">
        <ele>295.74</ele>
        <time>2018-01-15T09:07:20Z</time>
      </trkpt>
      <trkpt lat="44.17203" lon="5.08107">
        <ele>298.15</ele>
        <time>2018-01-15T09:07:50Z</time>
      </trkpt>
      <trkpt lat="44.17204" lon="5.08106">
        <ele>298.63</ele>
        <time>2018-01-15T09:08:20Z</time>
      </trkpt>
      <trkpt lat="44.17204" lon="5.08104">
        <ele>298.15</ele>
        <time>2018-01-15T09:08:50Z</time>
      </trkpt>
      <trkpt lat="44.17205" lon="5.08102">
        <ele>298.15</ele>
        <time>2018-01-15T09:09:20Z</time>
      </trkpt>
      <trkpt lat="44.17204" lon="5.08103">
        <ele>298.15</ele>
        <time>2018-01-15T09:09:50Z</time>
      </trkpt>
      <trkpt lat="44.17205" lon="5.08104">
        <ele>298.15</ele>
        <time>2018-01-15T09:10:20Z</time>
      </trkpt>
      <trkpt lat="44.17207" lon="5.08102">
        <ele>298.63</ele>
        <time>2018-01-15T09:10:50Z</time>
      </trkpt>
      <trkpt lat="44.17213" lon="5.08117">
        <ele>298.15</ele>
        <time>2018-01-15T09:11:20Z</time>
      </trkpt>
      <trkpt lat="44.17228" lon="5.08145">
        <ele>300.55</ele>
        <time>2018-01-15T09:11:50Z</time>
      </trkpt>
      <trkpt lat="44.1722" lon="5.08163">
        <ele>302.95</ele>
        <time>2018-01-15T09:12:20Z</time>
      </trkpt>
      <trkpt lat="44.17192" lon="5.08175">
        <ele>305.84</ele>
        <time>2018-01-15T09:12:50Z</time>
      </trkpt>
      <trkpt lat="44.17166" lon="5.0819">
        <ele>308.24</ele>
        <time>2018-01-15T09:13:20Z</time>
      </trkpt>
      <trkpt lat="44.17153" lon="5.08226">
        <ele>311.6</ele>
        <time>2018-01-15T09:13:50Z</time>
      </trkpt>
      <trkpt lat="44.17142" lon="5.0825">
        <ele>316.89</ele>
        <time>2018-01-15T09:14:20Z</time>
      </trkpt>
      <trkpt lat="44.1713" lon="5.08278">
        <ele>318.81</ele>
        <time>2018-01-15T09:14:50Z</time>
      </trkpt>
      <trkpt lat="44.17127" lon="5.0829">
        <ele>319.78</ele>
        <time>2018-01-15T09:15:20Z</time>
      </trkpt>
      <trkpt lat="44.17129" lon="5.08293">
        <ele>319.78</ele>
        <time>2018-01-15T09:15:50Z</time>
      </trkpt>
      <trkpt lat="44.17127" lon="5.08293">
        <ele>320.26</ele>
        <time>2018-01-15T09:16:20Z</time>
      </trkpt>
      <trkpt lat="44.17125" lon="5.08294">
        <ele>320.26</ele>
        <time>2018-01-15T09:16:50Z</time>
      </trkpt>
      <trkpt lat="44.17117" lon="5.08295">
        <ele>320.26</ele>
        <time>2018-01-15T09:17:20Z</time>
      </trkpt>
      <trkpt lat="44.171" lon="5.08304">
        <ele>321.7</ele>
        <time>2018-01-15T09:17:50Z</time>
      </trkpt>
      <trkpt lat="44.17079" lon="5.08326">
        <ele>323.14</ele>
        <time>2018-01-15T09:18:20Z</time>
      </trkpt>
      <trkpt lat="44.17064" lon="5.08364">
        <ele>325.06</ele>
        <time>2018-01-15T09:18:50Z</time>
      </trkpt>
      <trkpt lat="44.17053" lon="5.08406">
        <ele>325.06</ele>
        <time>2018-01-15T09:19:20Z</time>
      </trkpt>
      <trkpt lat="44.17036" lon="5.08449">
        <ele>325.54</ele>
        <time>2018-01-15T09:19:50Z</time>
      </trkpt>
      <trkpt lat="44.17007" lon="5.08467">
        <ele>323.62</ele>
        <time>2018-01-15T09:20:20Z</time>
      </trkpt>
      <trkpt lat="44.16991" lon="5.08498">
        <ele>321.22</ele>
        <time>2018-01-15T09:20:50Z</time>
      </trkpt>
      <trkpt lat="44.16985" lon="5.08545">
        <ele>321.7</ele>
        <time>2018-01-15T09:21:20Z</time>
      </trkpt>
      <trkpt lat="44.16965" lon="5.08589">
        <ele>322.18</ele>
        <time>2018-01-15T09:21:50Z</time>
      </trkpt>
      <trkpt lat="44.16947" lon="5.0863">
        <ele>323.62</ele>
        <time>2018-01-15T09:22:20Z</time>
      </trkpt>
      <trkpt lat="44.16919" lon="5.08651">
        <ele>324.58</ele>
        <time>2018-01-15T09:22:50Z</time>
      </trkpt>
      <trkpt lat="44.16904" lon="5.0867">
        <ele>323.62</ele>
        <time>2018-01-15T09:23:20Z</time>
      </trkpt>
      <trkpt lat="44.16902" lon="5.08674">
        <ele>323.62</ele>
        <time>2018-01-15T09:23:50Z</time>
      </trkpt>
      <trkpt lat="44.16894" lon="5.08707">
        <ele>321.7</ele>
        <time>2018-01-15T09:24:20Z</time>
      </trkpt>
      <trkpt lat="44.16881" lon="5.0872">
        <ele>318.81</ele>
        <time>2018-01-15T09:24:50Z</time>
      </trkpt>
      <trkpt lat="44.16859" lon="5.08709">
        <ele>317.37</ele>
        <time>2018-01-15T09:25:20Z</time>
      </trkpt>
      <trkpt lat="44.16832" lon="5.08712">
        <ele>314.97</ele>
        <time>2018-01-15T09:25:50Z</time>
      </trkpt>
      <trkpt lat="44.16805" lon="5.08714">
        <ele>311.12</ele>
        <time>2018-01-15T09:26:20Z</time>
      </trkpt>
      <trkpt lat="44.16774" lon="5.08705">
        <ele>305.84</ele>
        <time>2018-01-15T09:26:50Z</time>
      </trkpt>
      <trkpt lat="44.16759" lon="5.08722">
        <ele>299.59</ele>
        <time>2018-01-15T09:27:20Z</time>
      </trkpt>
      <trkpt lat="44.16788" lon="5.08747">
        <ele>296.7</ele>
        <time>2018-01-15T09:27:50Z</time>
      </trkpt>
      <trkpt lat="44.1677" lon="5.08763">
        <ele>293.34</ele>
        <time>2018-01-15T09:28:20Z</time>
      </trkpt>
      <trkpt lat="44.16776" lon="5.08793">
        <ele>292.38</ele>
        <time>2018-01-15T09:28:50Z</time>
      </trkpt>
      <trkpt lat="44.16777" lon="5.08802">
        <ele>291.42</ele>
        <time>2018-01-15T09:29:20Z</time>
      </trkpt>
      <trkpt lat="44.16776" lon="5.08801">
        <ele>291.42</ele>
        <time>2018-01-15T09:29:50Z</time>
      </trkpt>
      <trkpt lat="44.16777" lon="5.08802">
        <ele>291.9</ele>
        <time>2018-01-15T09:30:20Z</time>
      </trkpt>
      <trkpt lat="44.16778" lon="5.08802">
        <ele>291.9</ele>
        <time>2018-01-15T09:30:50Z</time>
      </trkpt>
      <trkpt lat="44.16778" lon="5.08804">
        <ele>291.9</ele>
        <time>2018-01-15T09:31:20Z</time>
      </trkpt>
      <trkpt lat="44.16779" lon="5.08807">
        <ele>291.9</ele>
        <time>2018-01-15T09:31:50Z</time>
      </trkpt>
      <trkpt lat="44.16778" lon="5.08804">
        <ele>291.9</ele>
        <time>2018-01-15T09:32:20Z</time>
      </trkpt>
      <trkpt lat="44.16779" lon="5.08802">
        <ele>291.9</ele>
        <time>2018-01-15T09:32:50Z</time>
      </trkpt>
      <trkpt lat="44.16777" lon="5.08802">
        <ele>291.9</ele>
        <time>2018-01-15T09:33:20Z</time>
      </trkpt>
      <trkpt lat="44.16775" lon="5.08801">
        <ele>291.9</ele>
        <time>2018-01-15T09:33:50Z</time>
      </trkpt>
      <trkpt lat="44.16778" lon="5.08798">
        <ele>291.9</ele>
        <time>2018-01-15T09:34:20Z</time>
      </trkpt>
      <trkpt lat="44.16779" lon="5.08803">
        <ele>291.9</ele>
        <time>2018-01-15T09:34:50Z</time>
      </trkpt>
      <trkpt lat="44.16779" lon="5.088">
        <ele>291.9</ele>
        <time>2018-01-15T09:35:20Z</time>
      </trkpt>
      <trkpt lat="44.16778" lon="5.08799">
        <ele>291.9</ele>
        <time>2018-01-15T09:35:50Z</time>
      </trkpt>
      <trkpt lat="44.16779" lon="5.08801">
        <ele>291.9</ele>
        <time>2018-01-15T09:36:20Z</time>
      </trkpt>
      <trkpt lat="44.16779" lon="5.088">
        <ele>291.9</ele>
        <time>2018-01-15T09:36:50Z</time>
      </trkpt>
      <trkpt lat="44.1678" lon="5.08801">
        <ele>291.9</ele>
        <time>2018-01-15T09:37:20Z</time>
      </trkpt>
      <trkpt lat="44.16778" lon="5.08803">
        <ele>291.9</ele>
        <time>2018-01-15T09:37:50Z</time>
      </trkpt>
      <trkpt lat="44.16779" lon="5.08798">
        <ele>291.9</ele>
        <time>2018-01-15T09:38:20Z</time>
      </trkpt>
      <trkpt lat="44.16779" lon="5.08802">
        <ele>291.9</ele>
        <time>2018-01-15T09:38:50Z</time>
      </trkpt>
      <trkpt lat="44.16778" lon="5.08801">
        <ele>291.9</ele>
        <time>2018-01-15T09:39:20Z</time>
      </trkpt>
      <trkpt lat="44.16781" lon="5.08804">
        <ele>291.9</ele>
        <time>2018-01-15T09:39:50Z</time>
      </trkpt>
      <trkpt lat="44.16782" lon="5.08803">
        <ele>291.9</ele>
        <time>2018-01-15T09:40:20Z</time>
      </trkpt>
      <trkpt lat="44.16776" lon="5.08803">
        <ele>291.9</ele>
        <time>2018-01-15T09:40:50Z</time>
      </trkpt>
      <trkpt lat="44.16778" lon="5.08801">
        <ele>291.9</ele>
        <time>2018-01-15T09:41:20Z</time>
      </trkpt>
      <trkpt lat="44.16778" lon="5.088">
        <ele>291.9</ele>
        <time>2018-01-15T09:41:50Z</time>
      </trkpt>
      <trkpt lat="44.16779" lon="5.08799">
        <ele>291.9</ele>
        <time>2018-01-15T09:42:20Z</time>
      </trkpt>
      <trkpt lat="44.16771" lon="5.08797">
        <ele>291.9</ele>
        <time>2018-01-15T09:42:50Z</time>
      </trkpt>
      <trkpt lat="44.16744" lon="5.08797">
        <ele>293.82</ele>
        <time>2018-01-15T09:43:20Z</time>
      </trkpt>
      <trkpt lat="44.16717" lon="5.08795">
        <ele>294.78</ele>
        <time>2018-01-15T09:43:50Z</time>
      </trkpt>
      <trkpt lat="44.16685" lon="5.08792">
        <ele>295.74</ele>
        <time>2018-01-15T09:44:20Z</time>
      </trkpt>
      <trkpt lat="44.16675" lon="5.08792">
        <ele>296.7</ele>
        <time>2018-01-15T09:44:50Z</time>
      </trkpt>
      <trkpt lat="44.16648" lon="5.08791">
        <ele>295.26</ele>
        <time>2018-01-15T09:45:20Z</time>
      </trkpt>
      <trkpt lat="44.16618" lon="5.08789">
        <ele>293.34</ele>
        <time>2018-01-15T09:45:50Z</time>
      </trkpt>
      <trkpt lat="44.16585" lon="5.08787">
        <ele>290.94</ele>
        <time>2018-01-15T09:46:20Z</time>
      </trkpt>
      <trkpt lat="44.16551" lon="5.08788">
        <ele>289.01</ele>
        <time>2018-01-15T09:46:50Z</time>
      </trkpt>
      <trkpt lat="44.16519" lon="5.08797">
        <ele>288.05</ele>
        <time>2018-01-15T09:47:20Z</time>
      </trkpt>
      <trkpt lat="44.16489" lon="5.08822">
        <ele>287.57</ele>
        <time>2018-01-15T09:47:50Z</time>
      </trkpt>
      <trkpt lat="44.1646" lon="5.0884">
        <ele>289.01</ele>
        <time>2018-01-15T09:48:20Z</time>
      </trkpt>
      <trkpt lat="44.16447" lon="5.0887">
        <ele>292.38</ele>
        <time>2018-01-15T09:48:50Z</time>
      </trkpt>
      <trkpt lat="44.16428" lon="5.08901">
        <ele>292.86</ele>
        <time>2018-01-15T09:49:20Z</time>
      </trkpt>
      <trkpt lat="44.16409" lon="5.08926">
        <ele>291.9</ele>
        <time>2018-01-15T09:49:50Z</time>
      </trkpt>
      <trkpt lat="44.16387" lon="5.08951">
        <ele>290.94</ele>
        <time>2018-01-15T09:50:20Z</time>
      </trkpt>
      <trkpt lat="44.1638" lon="5.08991">
        <ele>291.42</ele>
        <time>2018-01-15T09:50:50Z</time>
      </trkpt>
      <trkpt lat="44.16386" lon="5.09031">
        <ele>293.82</ele>
        <time>2018-01-15T09:51:20Z</time>
      </trkpt>
      <trkpt lat="44.16395" lon="5.09066">
        <ele>296.7</ele>
        <time>2018-01-15T09:51:50Z</time>
      </trkpt>
      <trkpt lat="44.16396" lon="5.09101">
        <ele>298.15</ele>
        <time>2018-01-15T09:52:20Z</time>
      </trkpt>
      <trkpt lat="44.16402" lon="5.09139">
        <ele>300.07</ele>
        <time>2018-01-15T09:52:50Z</time>
      </trkpt>
      <trkpt lat="44.16408" lon="5.09165">
        <ele>304.39</ele>
        <time>2018-01-15T09:53:20Z</time>
      </trkpt>
      <trkpt lat="44.16409" lon="5.09189">
        <ele>308.24</ele>
        <time>2018-01-15T09:53:50Z</time>
      </trkpt>
      <trkpt lat="44.1641" lon="5.09206">
        <ele>310.64</ele>
        <time>2018-01-15T09:54:20Z</time>
      </trkpt>
      <trkpt lat="44.16413" lon="5.09239">
        <ele>314.49</ele>
        <time>2018-01-15T09:54:50Z</time>
      </trkpt>
      <trkpt lat="44.16428" lon="5.09264">
        <ele>318.81</ele>
        <time>2018-01-15T09:55:20Z</time>
      </trkpt>
      <trkpt lat="44.16413" lon="5.09283">
        <ele>319.78</ele>
        <time>2018-01-15T09:55:50Z</time>
      </trkpt>
      <trkpt lat="44.16402" lon="5.09301">
        <ele>324.1</ele>
        <time>2018-01-15T09:56:20Z</time>
      </trkpt>
      <trkpt lat="44.16387" lon="5.09306">
        <ele>326.02</ele>
        <time>2018-01-15T09:56:50Z</time>
      </trkpt>
      <trkpt lat="44.16368" lon="5.09321">
        <ele>330.83</ele>
        <time>2018-01-15T09:57:20Z</time>
      </trkpt>
      <trkpt lat="44.16375" lon="5.09356">
        <ele>332.75</ele>
        <time>2018-01-15T09:57:50Z</time>
      </trkpt>
      <trkpt lat="44.16377" lon="5.0936">
        <ele>333.71</ele>
        <time>2018-01-15T09:58:20Z</time>
      </trkpt>
      <trkpt lat="44.16379" lon="5.09358">
        <ele>334.2</ele>
        <time>2018-01-15T09:58:50Z</time>
      </trkpt>
      <trkpt lat="44.1638" lon="5.09358">
        <ele>334.2</ele>
        <time>2018-01-15T09:59:20Z</time>
      </trkpt>
      <trkpt lat="44.16376" lon="5.09357">
        <ele>334.2</ele>
        <time>2018-01-15T09:59:50Z</time>
      </trkpt>
      <trkpt lat="44.16376" lon="5.09361">
        <ele>334.2</ele>
        <time>2018-01-15T10:00:20Z</time>
      </trkpt>
      <trkpt lat="44.16374" lon="5.09361">
        <ele>334.2</ele>
        <time>2018-01-15T10:00:50Z</time>
      </trkpt>
      <trkpt lat="44.16377" lon="5.0936">
        <ele>334.2</ele>
        <time>2018-01-15T10:01:20Z</time>
      </trkpt>
      <trkpt lat="44.16377" lon="5.09357">
        <ele>334.2</ele>
        <time>2018-01-15T10:01:50Z</time>
      </trkpt>
      <trkpt lat="44.16374" lon="5.09361">
        <ele>334.2</ele>
        <time>2018-01-15T10:02:20Z</time>
      </trkpt>
      <trkpt lat="44.16375" lon="5.09361">
        <ele>334.2</ele>
        <time>2018-01-15T10:02:50Z</time>
      </trkpt>
      <trkpt lat="44.16379" lon="5.09366">
        <ele>334.2</ele>
        <time>2018-01-15T10:03:20Z</time>
      </trkpt>
      <trkpt lat="44.16378" lon="5.09393">
        <ele>334.2</ele>
        <time>2018-01-15T10:03:50Z</time>
      </trkpt>
      <trkpt lat="44.1638" lon="5.09425">
        <ele>339</ele>
        <time>2018-01-15T10:04:20Z</time>
      </trkpt>
      <trkpt lat="44.16386" lon="5.0943">
        <ele>342.85</ele>
        <time>2018-01-15T10:04:50Z</time>
      </trkpt>
      <trkpt lat="44.16395" lon="5.0942">
        <ele>345.73</ele>
        <time>2018-01-15T10:05:20Z</time>
      </trkpt>
      <trkpt lat="44.1639" lon="5.09411">
        <ele>344.29</ele>
        <time>2018-01-15T10:05:50Z</time>
      </trkpt>
      <trkpt lat="44.16391" lon="5.0941">
        <ele>343.81</ele>
        <time>2018-01-15T10:06:20Z</time>
      </trkpt>
      <trkpt lat="44.16389" lon="5.09404">
        <ele>343.81</ele>
        <time>2018-01-15T10:06:50Z</time>
      </trkpt>
      <trkpt lat="44.16397" lon="5.09398">
        <ele>344.77</ele>
        <time>2018-01-15T10:07:20Z</time>
      </trkpt>
      <trkpt lat="44.16401" lon="5.09399">
        <ele>346.21</ele>
        <time>2018-01-15T10:07:50Z</time>
      </trkpt>
      <trkpt lat="44.16404" lon="5.09394">
        <ele>347.65</ele>
        <time>2018-01-15T10:08:20Z</time>
      </trkpt>
      <trkpt lat="44.16404" lon="5.09391">
        <ele>347.65</ele>
        <time>2018-01-15T10:08:50Z</time>
      </trkpt>
      <trkpt lat="44.16404" lon="5.0939">
        <ele>347.65</ele>
        <time>2018-01-15T10:09:20Z</time>
      </trkpt>
      <trkpt lat="44.16402" lon="5.09389">
        <ele>348.13</ele>
        <time>2018-01-15T10:09:50Z</time>
      </trkpt>
      <trkpt lat="44.16414" lon="5.0938">
        <ele>348.13</ele>
        <time>2018-01-15T10:10:20Z</time>
      </trkpt>
      <trkpt lat="44.16426" lon="5.09376">
        <ele>348.13</ele>
        <time>2018-01-15T10:10:50Z</time>
      </trkpt>
      <trkpt lat="44.16432" lon="5.09376">
        <ele>348.13</ele>
        <time>2018-01-15T10:11:20Z</time>
      </trkpt>
      <trkpt lat="44.16433" lon="5.09374">
        <ele>351.98</ele>
        <time>2018-01-15T10:11:50Z</time>
      </trkpt>
      <trkpt lat="44.16431" lon="5.09372">
        <ele>351.98</ele>
        <time>2018-01-15T10:12:20Z</time>
      </trkpt>
      <trkpt lat="44.16431" lon="5.09371">
        <ele>351.5</ele>
        <time>2018-01-15T10:12:50Z</time>
      </trkpt>
      <trkpt lat="44.16432" lon="5.09372">
        <ele>351.5</ele>
        <time>2018-01-15T10:13:20Z</time>
      </trkpt>
      <trkpt lat="44.1645" lon="5.09386">
        <ele>353.9</ele>
        <time>2018-01-15T10:13:50Z</time>
      </trkpt>
      <trkpt lat="44.16463" lon="5.09413">
        <ele>356.31</ele>
        <time>2018-01-15T10:14:20Z</time>
      </trkpt>
      <trkpt lat="44.16483" lon="5.09426">
        <ele>358.71</ele>
        <time>2018-01-15T10:14:50Z</time>
      </trkpt>
      <trkpt lat="44.16503" lon="5.09416">
        <ele>359.67</ele>
        <time>2018-01-15T10:15:20Z</time>
      </trkpt>
      <trkpt lat="44.16517" lon="5.09409">
        <ele>362.07</ele>
        <time>2018-01-15T10:15:50Z</time>
      </trkpt>
      <trkpt lat="44.16525" lon="5.094">
        <ele>364</ele>
        <time>2018-01-15T10:16:20Z</time>
      </trkpt>
      <trkpt lat="44.16537" lon="5.09374">
        <ele>364.48</ele>
        <time>2018-01-15T10:16:50Z</time>
      </trkpt>
      <trkpt lat="44.1656" lon="5.09349">
        <ele>365.92</ele>
        <time>2018-01-15T10:17:20Z</time>
      </trkpt>
      <trkpt lat="44.16569" lon="5.09328">
        <ele>366.88</ele>
        <time>2018-01-15T10:17:50Z</time>
      </trkpt>
      <trkpt lat="44.1657" lon="5.09333">
        <ele>366.4</ele>
        <time>2018-01-15T10:18:20Z</time>
      </trkpt>
      <trkpt lat="44.16567" lon="5.09335">
        <ele>366.4</ele>
        <time>2018-01-15T10:18:50Z</time>
      </trkpt>
      <trkpt lat="44.16567" lon="5.09335">
        <ele>366.4</ele>
        <time>2018-01-15T10:19:20Z</time>
      </trkpt>
      <trkpt lat="44.16566" lon="5.09335">
        <ele>367.36</ele>
        <time>2018-01-15T10:19:50Z</time>
      </trkpt>
      <trkpt lat="44.16567" lon="5.09333">
        <ele>366.88</ele>
        <time>2018-01-15T10:20:20Z</time>
      </trkpt>
      <trkpt lat="44.16567" lon="5.0935">
        <ele>367.84</ele>
        <time>2018-01-15T10:20:50Z</time>
      </trkpt>
      <trkpt lat="44.16574" lon="5.09383">
        <ele>370.24</ele>
        <time>2018-01-15T10:21:20Z</time>
      </trkpt>
      <trkpt lat="44.16583" lon="5.09409">
        <ele>374.09</ele>
        <time>2018-01-15T10:21:50Z</time>
      </trkpt>
      <trkpt lat="44.16581" lon="5.09443">
        <ele>378.42</ele>
        <time>2018-01-15T10:22:20Z</time>
      </trkpt>
      <trkpt lat="44.1657" lon="5.09477">
        <ele>380.82</ele>
        <time>2018-01-15T10:22:50Z</time>
      </trkpt>
      <trkpt lat="44.16561" lon="5.09517">
        <ele>381.3</ele>
        <time>2018-01-15T10:23:20Z</time>
      </trkpt>
      <trkpt lat="44.16559" lon="5.09535">
        <ele>381.3</ele>
        <time>2018-01-15T10:23:50Z</time>
      </trkpt>
      <trkpt lat="44.16545" lon="5.0955">
        <ele>382.26</ele>
        <time>2018-01-15T10:24:20Z</time>
      </trkpt>
      <trkpt lat="44.16534" lon="5.09584">
        <ele>383.7</ele>
        <time>2018-01-15T10:24:50Z</time>
      </trkpt>
      <trkpt lat="44.16518" lon="5.09615">
        <ele>385.63</ele>
        <time>2018-01-15T10:25:20Z</time>
      </trkpt>
      <trkpt lat="44.16507" lon="5.09631">
        <ele>388.51</ele>
        <time>2018-01-15T10:25:50Z</time>
      </trkpt>
      <trkpt lat="44.16503" lon="5.09623">
        <ele>389.47</ele>
        <time>2018-01-15T10:26:20Z</time>
      </trkpt>
      <trkpt lat="44.16497" lon="5.09624">
        <ele>389.47</ele>
        <time>2018-01-15T10:26:50Z</time>
      </trkpt>
      <trkpt lat="44.16495" lon="5.09629">
        <ele>389.47</ele>
        <time>2018-01-15T10:27:20Z</time>
      </trkpt>
      <trkpt lat="44.16494" lon="5.09636">
        <ele>389.95</ele>
        <time>2018-01-15T10:27:50Z</time>
      </trkpt>
      <trkpt lat="44.16487" lon="5.09652">
        <ele>390.43</ele>
        <time>2018-01-15T10:28:20Z</time>
      </trkpt>
      <trkpt lat="44.16494" lon="5.09692">
        <ele>395.72</ele>
        <time>2018-01-15T10:28:50Z</time>
      </trkpt>
      <trkpt lat="44.16494" lon="5.09701">
        <ele>398.12</ele>
        <time>2018-01-15T10:29:20Z</time>
      </trkpt>
      <trkpt lat="44.16463" lon="5.09702">
        <ele>400.53</ele>
        <time>2018-01-15T10:29:50Z</time>
      </trkpt>
      <trkpt lat="44.16446" lon="5.09708">
        <ele>401.49</ele>
        <time>2018-01-15T10:30:20Z</time>
      </trkpt>
      <trkpt lat="44.16437" lon="5.09734">
        <ele>401.97</ele>
        <time>2018-01-15T10:30:50Z</time>
      </trkpt>
      <trkpt lat="44.16439" lon="5.09757">
        <ele>404.85</ele>
        <time>2018-01-15T10:31:20Z</time>
      </trkpt>
      <trkpt lat="44.16431" lon="5.09775">
        <ele>402.93</ele>
        <time>2018-01-15T10:31:50Z</time>
      </trkpt>
      <trkpt lat="44.16433" lon="5.09786">
        <ele>401.97</ele>
        <time>2018-01-15T10:32:20Z</time>
      </trkpt>
      <trkpt lat="44.1644" lon="5.09825">
        <ele>402.93</ele>
        <time>2018-01-15T10:32:50Z</time>
      </trkpt>
      <trkpt lat="44.16448" lon="5.09857">
        <ele>402.45</ele>
        <time>2018-01-15T10:33:20Z</time>
      </trkpt>
      <trkpt lat="44.16447" lon="5.0987">
        <ele>401.49</ele>
        <time>2018-01-15T10:33:50Z</time>
      </trkpt>
      <trkpt lat="44.16446" lon="5.0987">
        <ele>401.97</ele>
        <time>2018-01-15T10:34:20Z</time>
      </trkpt>
      <trkpt lat="44.16448" lon="5.0987">
        <ele>401.97</ele>
        <time>2018-01-15T10:34:50Z</time>
      </trkpt>
      <trkpt lat="44.16446" lon="5.09873">
        <ele>401.97</ele>
        <time>2018-01-15T10:35:20Z</time>
      </trkpt>
      <trkpt lat="44.16445" lon="5.09872">
        <ele>401.97</ele>
        <time>2018-01-15T10:35:50Z</time>
      </trkpt>
      <trkpt lat="44.16449" lon="5.09872">
        <ele>401.97</ele>
        <time>2018-01-15T10:36:20Z</time>
      </trkpt>
      <trkpt lat="44.16455" lon="5.09866">
        <ele>401.97</ele>
        <time>2018-01-15T10:36:50Z</time>
      </trkpt>
      <trkpt lat="44.1648" lon="5.09851">
        <ele>402.45</ele>
        <time>2018-01-15T10:37:20Z</time>
      </trkpt>
      <trkpt lat="44.16509" lon="5.09831">
        <ele>401.49</ele>
        <time>2018-01-15T10:37:50Z</time>
      </trkpt>
      <trkpt lat="44.16539" lon="5.09815">
        <ele>401.49</ele>
        <time>2018-01-15T10:38:20Z</time>
      </trkpt>
      <trkpt lat="44.16571" lon="5.098">
        <ele>400.53</ele>
        <time>2018-01-15T10:38:50Z</time>
      </trkpt>
      <trkpt lat="44.1659" lon="5.09768">
        <ele>398.6</ele>
        <time>2018-01-15T10:39:20Z</time>
      </trkpt>
      <trkpt lat="44.16613" lon="5.09728">
        <ele>399.57</ele>
        <time>2018-01-15T10:39:50Z</time>
      </trkpt>
      <trkpt lat="44.16639" lon="5.09717">
        <ele>400.05</ele>
        <time>2018-01-15T10:40:20Z</time>
      </trkpt>
      <trkpt lat="44.16655" lon="5.09739">
        <ele>404.37</ele>
        <time>2018-01-15T10:40:50Z</time>
      </trkpt>
      <trkpt lat="44.16668" lon="5.09763">
        <ele>408.7</ele>
        <time>2018-01-15T10:41:20Z</time>
      </trkpt>
      <trkpt lat="44.16689" lon="5.09764">
        <ele>413.5</ele>
        <time>2018-01-15T10:41:50Z</time>
      </trkpt>
      <trkpt lat="44.16709" lon="5.09757">
        <ele>415.43</ele>
        <time>2018-01-15T10:42:20Z</time>
      </trkpt>
      <trkpt lat="44.16726" lon="5.09753">
        <ele>416.87</ele>
        <time>2018-01-15T10:42:50Z</time>
      </trkpt>
      <trkpt lat="44.16739" lon="5.09741">
        <ele>418.79</ele>
        <time>2018-01-15T10:43:20Z</time>
      </trkpt>
      <trkpt lat="44.16742" lon="5.0973">
        <ele>417.35</ele>
        <time>2018-01-15T10:43:50Z</time>
      </trkpt>
      <trkpt lat="44.16735" lon="5.09726">
        <ele>416.87</ele>
        <time>2018-01-15T10:44:20Z</time>
      </trkpt>
      <trkpt lat="44.16738" lon="5.09725">
        <ele>417.35</ele>
        <time>2018-01-15T10:44:50Z</time>
      </trkpt>
      <trkpt lat="44.16739" lon="5.09722">
        <ele>417.35</ele>
        <time>2018-01-15T10:45:20Z</time>
      </trkpt>
      <trkpt lat="44.16751" lon="5.097">
        <ele>416.39</ele>
        <time>2018-01-15T10:45:50Z</time>
      </trkpt>
      <trkpt lat="44.1678" lon="5.09681">
        <ele>415.43</ele>
        <time>2018-01-15T10:46:20Z</time>
      </trkpt>
      <trkpt lat="44.16809" lon="5.09671">
        <ele>414.95</ele>
        <time>2018-01-15T10:46:50Z</time>
      </trkpt>
      <trkpt lat="44.1684" lon="5.09658">
        <ele>413.98</ele>
        <time>2018-01-15T10:47:20Z</time>
      </trkpt>
      <trkpt lat="44.16873" lon="5.09633">
        <ele>413.98</ele>
        <time>2018-01-15T10:47:50Z</time>
      </trkpt>
      <trkpt lat="44.16902" lon="5.09612">
        <ele>415.43</ele>
        <time>2018-01-15T10:48:20Z</time>
      </trkpt>
      <trkpt lat="44.16932" lon="5.09586">
        <ele>415.91</ele>
        <time>2018-01-15T10:48:50Z</time>
      </trkpt>
      <trkpt lat="44.16958" lon="5.09558">
        <ele>415.43</ele>
        <time>2018-01-15T10:49:20Z</time>
      </trkpt>
      <trkpt lat="44.16992" lon="5.09536">
        <ele>415.43</ele>
        <time>2018-01-15T10:49:50Z</time>
      </trkpt>
      <trkpt lat="44.1702" lon="5.09517">
        <ele>415.43</ele>
        <time>2018-01-15T10:50:20Z</time>
      </trkpt>
      <trkpt lat="44.17053" lon="5.09515">
        <ele>417.83</ele>
        <time>2018-01-15T10:50:50Z</time>
      </trkpt>
      <trkpt lat="44.17085" lon="5.095">
        <ele>420.71</ele>
        <time>2018-01-15T10:51:20Z</time>
      </trkpt>
      <trkpt lat="44.17119" lon="5.09482">
        <ele>420.23</ele>
        <time>2018-01-15T10:51:50Z</time>
      </trkpt>
      <trkpt lat="44.17144" lon="5.09456">
        <ele>418.79</ele>
        <time>2018-01-15T10:52:20Z</time>
      </trkpt>
      <trkpt lat="44.17176" lon="5.09427">
        <ele>416.87</ele>
        <time>2018-01-15T10:52:50Z</time>
      </trkpt>
      <trkpt lat="44.17198" lon="5.09409">
        <ele>414.95</ele>
        <time>2018-01-15T10:53:20Z</time>
      </trkpt>
      <trkpt lat="44.17232" lon="5.09409">
        <ele>413.98</ele>
        <time>2018-01-15T10:53:50Z</time>
      </trkpt>
      <trkpt lat="44.17265" lon="5.09406">
        <ele>413.98</ele>
        <time>2018-01-15T10:54:20Z</time>
      </trkpt>
      <trkpt lat="44.17273" lon="5.09405">
        <ele>413.98</ele>
        <time>2018-01-15T10:54:50Z</time>
      </trkpt>
      <trkpt lat="44.1727" lon="5.09397">
        <ele>413.98</ele>
        <time>2018-01-15T10:55:20Z</time>
      </trkpt>
      <trkpt lat="44.17273" lon="5.09402">
        <ele>413.98</ele>
        <time>2018-01-15T10:55:50Z</time>
      </trkpt>
      <trkpt lat="44.1727" lon="5.09403">
        <ele>413.98</ele>
        <time>2018-01-15T10:56:20Z</time>
      </trkpt>
      <trkpt lat="44.17272" lon="5.094">
        <ele>413.98</ele>
        <time>2018-01-15T10:56:50Z</time>
      </trkpt>
      <trkpt lat="44.17272" lon="5.094">
        <ele>413.98</ele>
        <time>2018-01-15T10:57:20Z</time>
      </trkpt>
      <trkpt lat="44.17306" lon="5.09384">
        <ele>416.39</ele>
        <time>2018-01-15T10:57:50Z</time>
      </trkpt>
      <trkpt lat="44.17333" lon="5.09363">
        <ele>420.23</ele>
        <time>2018-01-15T10:58:20Z</time>
      </trkpt>
      <trkpt lat="44.17354" lon="5.09349">
        <ele>425.04</ele>
        <time>2018-01-15T10:58:50Z</time>
      </trkpt>
      <trkpt lat="44.17375" lon="5.09335">
        <ele>429.37</ele>
        <time>2018-01-15T10:59:20Z</time>
      </trkpt>
      <trkpt lat="44.174" lon="5.0935">
        <ele>433.21</ele>
        <time>2018-01-15T10:59:50Z</time>
      </trkpt>
      <trkpt lat="44.1743" lon="5.09352">
        <ele>435.13</ele>
        <time>2018-01-15T11:00:20Z</time>
      </trkpt>
      <trkpt lat="44.17461" lon="5.0934">
        <ele>435.61</ele>
        <time>2018-01-15T11:00:50Z</time>
      </trkpt>
      <trkpt lat="44.17484" lon="5.09322">
        <ele>436.1</ele>
        <time>2018-01-15T11:01:20Z</time>
      </trkpt>
      <trkpt lat="44.17485" lon="5.09321">
        <ele>436.58</ele>
        <time>2018-01-15T11:01:50Z</time>
      </trkpt>
      <trkpt lat="44.17491" lon="5.09314">
        <ele>436.58</ele>
        <time>2018-01-15T11:02:20Z</time>
      </trkpt>
      <trkpt lat="44.17519" lon="5.09295">
        <ele>439.94</ele>
        <time>2018-01-15T11:02:50Z</time>
      </trkpt>
      <trkpt lat="44.1754" lon="5.09278">
        <ele>445.23</ele>
        <time>2018-01-15T11:03:20Z</time>
      </trkpt>
      <trkpt lat="44.1755" lon="5.09313">
        <ele>446.19</ele>
        <time>2018-01-15T11:03:50Z</time>
      </trkpt>
      <trkpt lat="44.17554" lon="5.0935">
        <ele>450.03</ele>
        <time>2018-01-15T11:04:20Z</time>
      </trkpt>
      <trkpt lat="44.17566" lon="5.09382">
        <ele>453.4</ele>
        <time>2018-01-15T11:04:50Z</time>
      </trkpt>
      <trkpt lat="44.17587" lon="5.09412">
        <ele>457.24</ele>
        <time>2018-01-15T11:05:20Z</time>
      </trkpt>
      <trkpt lat="44.17607" lon="5.09433">
        <ele>460.61</ele>
        <time>2018-01-15T11:05:50Z</time>
      </trkpt>
      <trkpt lat="44.17611" lon="5.09433">
        <ele>460.13</ele>
        <time>2018-01-15T11:06:20Z</time>
      </trkpt>
      <trkpt lat="44.17609" lon="5.09428">
        <ele>461.09</ele>
        <time>2018-01-15T11:06:50Z</time>
      </trkpt>
      <trkpt lat="44.17608" lon="5.09431">
        <ele>461.09</ele>
        <time>2018-01-15T11:07:20Z</time>
      </trkpt>
      <trkpt lat="44.17607" lon="5.09435">
        <ele>461.09</ele>
        <time>2018-01-15T11:07:50Z</time>
      </trkpt>
      <trkpt lat="44.17646" lon="5.09425">
        <ele>461.57</ele>
        <time>2018-01-15T11:08:20Z</time>
      </trkpt>
      <trkpt lat="44.17682" lon="5.09419">
        <ele>462.53</ele>
        <time>2018-01-15T11:08:50Z</time>
      </trkpt>
      <trkpt lat="44.17717" lon="5.09424">
        <ele>463.49</ele>
        <time>2018-01-15T11:09:20Z</time>
      </trkpt>
      <trkpt lat="44.17743" lon="5.09445">
        <ele>466.86</ele>
        <time>2018-01-15T11:09:50Z</time>
      </trkpt>
      <trkpt lat="44.17768" lon="5.09473">
        <ele>470.7</ele>
        <time>2018-01-15T11:10:20Z</time>
      </trkpt>
      <trkpt lat="44.17793" lon="5.095">
        <ele>472.63</ele>
        <time>2018-01-15T11:10:50Z</time>
      </trkpt>
      <trkpt lat="44.17813" lon="5.09536">
        <ele>475.03</ele>
        <time>2018-01-15T11:11:20Z</time>
      </trkpt>
      <trkpt lat="44.17826" lon="5.0957">
        <ele>474.55</ele>
        <time>2018-01-15T11:11:50Z</time>
      </trkpt>
      <trkpt lat="44.17844" lon="5.0961">
        <ele>474.07</ele>
        <time>2018-01-15T11:12:20Z</time>
      </trkpt>
      <trkpt lat="44.17877" lon="5.0963">
        <ele>474.55</ele>
        <time>2018-01-15T11:12:50Z</time>
      </trkpt>
      <trkpt lat="44.17909" lon="5.09647">
        <ele>475.03</ele>
        <time>2018-01-15T11:13:20Z</time>
      </trkpt>
      <trkpt lat="44.17926" lon="5.09656">
        <ele>476.47</ele>
        <time>2018-01-15T11:13:50Z</time>
      </trkpt>
      <trkpt lat="44.17924" lon="5.09658">
        <ele>476.47</ele>
        <time>2018-01-15T11:14:20Z</time>
      </trkpt>
      <trkpt lat="44.17925" lon="5.09658">
        <ele>476.47</ele>
        <time>2018-01-15T11:14:50Z</time>
      </trkpt>
      <trkpt lat="44.17924" lon="5.09659">
        <ele>476.47</ele>
        <time>2018-01-15T11:15:20Z</time>
      </trkpt>
      <trkpt lat="44.17944" lon="5.09641">
        <ele>476.47</ele>
        <time>2018-01-15T11:15:50Z</time>
      </trkpt>
      <trkpt lat="44.17966" lon="5.09614">
        <ele>478.39</ele>
        <time>2018-01-15T11:16:20Z</time>
      </trkpt>
      <trkpt lat="44.1799" lon="5.09585">
        <ele>480.8</ele>
        <time>2018-01-15T11:16:50Z</time>
      </trkpt>
      <trkpt lat="44.18015" lon="5.0955">
        <ele>482.72</ele>
        <time>2018-01-15T11:17:20Z</time>
      </trkpt>
      <trkpt lat="44.18038" lon="5.09513">
        <ele>484.16</ele>
        <time>2018-01-15T11:17:50Z</time>
      </trkpt>
      <trkpt lat="44.18038" lon="5.09505">
        <ele>484.16</ele>
        <time>2018-01-15T11:18:20Z</time>
      </trkpt>
      <trkpt lat="44.18039" lon="5.09506">
        <ele>484.64</ele>
        <time>2018-01-15T11:18:50Z</time>
      </trkpt>
      <trkpt lat="44.18038" lon="5.09511">
        <ele>484.16</ele>
        <time>2018-01-15T11:19:20Z</time>
      </trkpt>
      <trkpt lat="44.18046" lon="5.09496">
        <ele>484.16</ele>
        <time>2018-01-15T11:19:50Z</time>
      </trkpt>
      <trkpt lat="44.18055" lon="5.09459">
        <ele>488.01</ele>
        <time>2018-01-15T11:20:20Z</time>
      </trkpt>
      <trkpt lat="44.18061" lon="5.09416">
        <ele>488.97</ele>
        <time>2018-01-15T11:20:50Z</time>
      </trkpt>
      <trkpt lat="44.18054" lon="5.09378">
        <ele>493.29</ele>
        <time>2018-01-15T11:21:20Z</time>
      </trkpt>
      <trkpt lat="44.18053" lon="5.09348">
        <ele>497.62</ele>
        <time>2018-01-15T11:21:50Z</time>
      </trkpt>
      <trkpt lat="44.18057" lon="5.0932">
        <ele>503.39</ele>
        <time>2018-01-15T11:22:20Z</time>
      </trkpt>
      <trkpt lat="44.18072" lon="5.09303">
        <ele>509.64</ele>
        <time>2018-01-15T11:22:50Z</time>
      </trkpt>
      <trkpt lat="44.18073" lon="5.09302">
        <ele>510.6</ele>
        <time>2018-01-15T11:23:20Z</time>
      </trkpt>
      <trkpt lat="44.18074" lon="5.09302">
        <ele>510.6</ele>
        <time>2018-01-15T11:23:50Z</time>
      </trkpt>
      <trkpt lat="44.18074" lon="5.09301">
        <ele>510.6</ele>
        <time>2018-01-15T11:24:20Z</time>
      </trkpt>
      <trkpt lat="44.18075" lon="5.09298">
        <ele>511.08</ele>
        <time>2018-01-15T11:24:50Z</time>
      </trkpt>
      <trkpt lat="44.18075" lon="5.09295">
        <ele>511.08</ele>
        <time>2018-01-15T11:25:20Z</time>
      </trkpt>
      <trkpt lat="44.18103" lon="5.09284">
        <ele>507.23</ele>
        <time>2018-01-15T11:25:50Z</time>
      </trkpt>
      <trkpt lat="44.1813" lon="5.09263">
        <ele>503.39</ele>
        <time>2018-01-15T11:26:20Z</time>
      </trkpt>
      <trkpt lat="44.18154" lon="5.09234">
        <ele>498.58</ele>
        <time>2018-01-15T11:26:50Z</time>
      </trkpt>
      <trkpt lat="44.18178" lon="5.09199">
        <ele>496.66</ele>
        <time>2018-01-15T11:27:20Z</time>
      </trkpt>
      <trkpt lat="44.18204" lon="5.09168">
        <ele>496.18</ele>
        <time>2018-01-15T11:27:50Z</time>
      </trkpt>
      <trkpt lat="44.18207" lon="5.09119">
        <ele>498.58</ele>
        <time>2018-01-15T11:28:20Z</time>
      </trkpt>
      <trkpt lat="44.18198" lon="5.09087">
        <ele>500.02</ele>
        <time>2018-01-15T11:28:50Z</time>
      </trkpt>
      <trkpt lat="44.18194" lon="5.09044">
        <ele>500.98</ele>
        <time>2018-01-15T11:29:20Z</time>
      </trkpt>
      <trkpt lat="44.18189" lon="5.09005">
        <ele>497.62</ele>
        <time>2018-01-15T11:29:50Z</time>
      </trkpt>
      <trkpt lat="44.18191" lon="5.08973">
        <ele>496.18</ele>
        <time>2018-01-15T11:30:20Z</time>
      </trkpt>
      <trkpt lat="44.1819" lon="5.08972">
        <ele>496.66</ele>
        <time>2018-01-15T11:30:50Z</time>
      </trkpt>
      <trkpt lat="44.18191" lon="5.08972">
        <ele>496.66</ele>
        <time>2018-01-15T11:31:20Z</time>
      </trkpt>
      <trkpt lat="44.18189" lon="5.08971">
        <ele>496.66</ele>
        <time>2018-01-15T11:31:50Z</time>
      </trkpt>
      <trkpt lat="44.18189" lon="5.08967">
        <ele>496.66</ele>
        <time>2018-01-15T11:32:20Z</time>
      </trkpt>
      <trkpt lat="44.1819" lon="5.08959">
        <ele>497.62</ele>
        <time>2018-01-15T11:32:50Z</time>
      </trkpt>
      <trkpt lat="44.1819" lon="5.08958">
        <ele>497.62</ele>
        <time>2018-01-15T11:33:20Z</time>
      </trkpt>
      <trkpt lat="44.18193" lon="5.08939">
        <ele>498.58</ele>
        <time>2018-01-15T11:33:50Z</time>
      </trkpt>
      <trkpt lat="44.18207" lon="5.08907">
        <ele>503.39</ele>
        <time>2018-01-15T11:34:20Z</time>
      </trkpt>
      <trkpt lat="44.18216" lon="5.08873">
        <ele>508.19</ele>
        <time>2018-01-15T11:34:50Z</time>
      </trkpt>
      <trkpt lat="44.18223" lon="5.08847">
        <ele>512.52</ele>
        <time>2018-01-15T11:35:20Z</time>
      </trkpt>
      <trkpt lat="44.18222" lon="5.08818">
        <ele>513.48</ele>
        <time>2018-01-15T11:35:50Z</time>
      </trkpt>
      <trkpt lat="44.18238" lon="5.088">
        <ele>516.37</ele>
        <time>2018-01-15T11:36:20Z</time>
      </trkpt>
      <trkpt lat="44.18257" lon="5.08767">
        <ele>518.77</ele>
        <time>2018-01-15T11:36:50Z</time>
      </trkpt>
      <trkpt lat="44.18262" lon="5.08737">
        <ele>524.06</ele>
        <time>2018-01-15T11:37:20Z</time>
      </trkpt>
      <trkpt lat="44.18269" lon="5.08696">
        <ele>530.3</ele>
        <time>2018-01-15T11:37:50Z</time>
      </trkpt>
      <trkpt lat="44.18273" lon="5.08665">
        <ele>537.03</ele>
        <time>2018-01-15T11:38:20Z</time>
      </trkpt>
      <trkpt lat="44.18277" lon="5.08641">
        <ele>542.8</ele>
        <time>2018-01-15T11:38:50Z</time>
      </trkpt>
      <trkpt lat="44.1828" lon="5.08606">
        <ele>548.09</ele>
        <time>2018-01-15T11:39:20Z</time>
      </trkpt>
      <trkpt lat="44.18279" lon="5.08566">
        <ele>550.97</ele>
        <time>2018-01-15T11:39:50Z</time>
      </trkpt>
      <trkpt lat="44.18276" lon="5.08564">
        <ele>550.49</ele>
        <time>2018-01-15T11:40:20Z</time>
      </trkpt>
      <trkpt lat="44.18277" lon="5.08562">
        <ele>550.49</ele>
        <time>2018-01-15T11:40:50Z</time>
      </trkpt>
      <trkpt lat="44.18275" lon="5.0856">
        <ele>550.49</ele>
        <time>2018-01-15T11:41:20Z</time>
      </trkpt>
      <trkpt lat="44.18276" lon="5.08561">
        <ele>550.49</ele>
        <time>2018-01-15T11:41:50Z</time>
      </trkpt>
      <trkpt lat="44.18276" lon="5.08561">
        <ele>550.49</ele>
        <time>2018-01-15T11:42:20Z</time>
      </trkpt>
      <trkpt lat="44.18277" lon="5.08561">
        <ele>550.49</ele>
        <time>2018-01-15T11:42:50Z</time>
      </trkpt>
      <trkpt lat="44.18278" lon="5.08561">
        <ele>550.49</ele>
        <time>2018-01-15T11:43:20Z</time>
      </trkpt>
      <trkpt lat="44.18276" lon="5.08562">
        <ele>550.49</ele>
        <time>2018-01-15T11:43:50Z</time>
      </trkpt>
      <trkpt lat="44.18269" lon="5.08546">
        <ele>550.49</ele>
        <time>2018-01-15T11:44:20Z</time>
      </trkpt>
      <trkpt lat="44.18264" lon="5.08508">
        <ele>550.49</ele>
        <time>2018-01-15T11:44:50Z</time>
      </trkpt>
      <trkpt lat="44.18264" lon="5.08463">
        <ele>554.82</ele>
        <time>2018-01-15T11:45:20Z</time>
      </trkpt>
      <trkpt lat="44.18274" lon="5.08431">
        <ele>556.74</ele>
        <time>2018-01-15T11:45:50Z</time>
      </trkpt>
      <trkpt lat="44.18294" lon="5.08404">
        <ele>562.03</ele>
        <time>2018-01-15T11:46:20Z</time>
      </trkpt>
      <trkpt lat="44.18311" lon="5.08367">
        <ele>566.35</ele>
        <time>2018-01-15T11:46:50Z</time>
      </trkpt>
      <trkpt lat="44.18329" lon="5.08338">
        <ele>568.76</ele>
        <time>2018-01-15T11:47:20Z</time>
      </trkpt>
      <trkpt lat="44.18329" lon="5.08336">
        <ele>569.24</ele>
        <time>2018-01-15T11:47:50Z</time>
      </trkpt>
      <trkpt lat="44.18345" lon="5.08314">
        <ele>571.16</ele>
        <time>2018-01-15T11:48:20Z</time>
      </trkpt>
      <trkpt lat="44.18366" lon="5.08288">
        <ele>575.49</ele>
        <time>2018-01-15T11:48:50Z</time>
      </trkpt>
      <trkpt lat="44.18382" lon="5.08253">
        <ele>580.77</ele>
        <time>2018-01-15T11:49:20Z</time>
      </trkpt>
      <trkpt lat="44.18402" lon="5.08227">
        <ele>585.58</ele>
        <time>2018-01-15T11:49:50Z</time>
      </trkpt>
      <trkpt lat="44.18421" lon="5.08204">
        <ele>590.87</ele>
        <time>2018-01-15T11:50:20Z</time>
      </trkpt>
      <trkpt lat="44.18435" lon="5.08189">
        <ele>596.15</ele>
        <time>2018-01-15T11:50:50Z</time>
      </trkpt>
      <trkpt lat="44.18448" lon="5.08167">
        <ele>600.96</ele>
        <time>2018-01-15T11:51:20Z</time>
      </trkpt>
      <trkpt lat="44.18451" lon="5.08145">
        <ele>605.29</ele>
        <time>2018-01-15T11:51:50Z</time>
      </trkpt>
      <trkpt lat="44.18454" lon="5.08138">
        <ele>605.77</ele>
        <time>2018-01-15T11:52:20Z</time>
      </trkpt>
      <trkpt lat="44.18466" lon="5.08111">
        <ele>609.61</ele>
        <time>2018-01-15T11:52:50Z</time>
      </trkpt>
      <trkpt lat="44.18451" lon="5.0814">
        <ele>606.73</ele>
        <time>2018-01-15T11:53:20Z</time>
      </trkpt>
      <trkpt lat="44.18449" lon="5.08166">
        <ele>602.88</ele>
        <time>2018-01-15T11:53:50Z</time>
      </trkpt>
      <trkpt lat="44.1845" lon="5.08168">
        <ele>601.44</ele>
        <time>2018-01-15T11:54:20Z</time>
      </trkpt>
      <trkpt lat="44.18451" lon="5.0817">
        <ele>601.44</ele>
        <time>2018-01-15T11:54:50Z</time>
      </trkpt>
      <trkpt lat="44.18451" lon="5.0817">
        <ele>601.44</ele>
        <time>2018-01-15T11:55:20Z</time>
      </trkpt>
      <trkpt lat="44.1845" lon="5.08169">
        <ele>601.44</ele>
        <time>2018-01-15T11:55:50Z</time>
      </trkpt>
      <trkpt lat="44.18449" lon="5.08168">
        <ele>601.44</ele>
        <time>2018-01-15T11:56:20Z</time>
      </trkpt>
      <trkpt lat="44.18449" lon="5.08167">
        <ele>601.44</ele>
        <time>2018-01-15T11:56:50Z</time>
      </trkpt>
      <trkpt lat="44.18448" lon="5.08167">
        <ele>601.44</ele>
        <time>2018-01-15T11:57:20Z</time>
      </trkpt>
      <trkpt lat="44.18448" lon="5.08167">
        <ele>601.44</ele>
        <time>2018-01-15T11:57:50Z</time>
      </trkpt>
      <trkpt lat="44.18449" lon="5.08168">
        <ele>601.44</ele>
        <time>2018-01-15T11:58:20Z</time>
      </trkpt>
      <trkpt lat="44.18448" lon="5.08168">
        <ele>601.44</ele>
        <time>2018-01-15T11:58:50Z</time>
      </trkpt>
      <trkpt lat="44.18448" lon="5.08167">
        <ele>601.44</ele>
        <time>2018-01-15T11:59:20Z</time>
      </trkpt>
      <trkpt lat="44.18448" lon="5.08167">
        <ele>601.44</ele>
        <time>2018-01-15T11:59:50Z</time>
      </trkpt>
      <trkpt lat="44.18449" lon="5.08168">
        <ele>601.44</ele>
        <time>2018-01-15T12:00:20Z</time>
      </trkpt>
      <trkpt lat="44.18449" lon="5.08168">
        <ele>601.44</ele>
        <time>2018-01-15T12:00:50Z</time>
      </trkpt>
      <trkpt lat="44.18449" lon="5.08167">
        <ele>601.44</ele>
        <time>2018-01-15T12:01:20Z</time>
      </trkpt>
      <trkpt lat="44.18448" lon="5.08167">
        <ele>601.44</ele>
        <time>2018-01-15T12:01:50Z</time>
      </trkpt>
      <trkpt lat="44.18449" lon="5.08167">
        <ele>601.44</ele>
        <time>2018-01-15T12:02:20Z</time>
      </trkpt>
      <trkpt lat="44.1845" lon="5.08168">
        <ele>601.44</ele>
        <time>2018-01-15T12:02:50Z</time>
      </trkpt>
      <trkpt lat="44.18449" lon="5.08168">
        <ele>601.44</ele>
        <time>2018-01-15T12:03:20Z</time>
      </trkpt>
      <trkpt lat="44.18449" lon="5.08168">
        <ele>601.44</ele>
        <time>2018-01-15T12:03:50Z</time>
      </trkpt>
      <trkpt lat="44.18449" lon="5.08168">
        <ele>601.44</ele>
        <time>2018-01-15T12:04:20Z</time>
      </trkpt>
      <trkpt lat="44.1845" lon="5.08168">
        <ele>601.44</ele>
        <time>2018-01-15T12:04:50Z</time>
      </trkpt>
      <trkpt lat="44.18449" lon="5.08168">
        <ele>601.44</ele>
        <time>2018-01-15T12:05:20Z</time>
      </trkpt>
      <trkpt lat="44.18447" lon="5.08167">
        <ele>601.44</ele>
        <time>2018-01-15T12:05:50Z</time>
      </trkpt>
      <trkpt lat="44.18447" lon="5.08167">
        <ele>601.44</ele>
        <time>2018-01-15T12:06:20Z</time>
      </trkpt>
      <trkpt lat="44.18447" lon="5.08167">
        <ele>601.44</ele>
        <time>2018-01-15T12:06:50Z</time>
      </trkpt>
      <trkpt lat="44.18447" lon="5.08168">
        <ele>601.44</ele>
        <time>2018-01-15T12:07:20Z</time>
      </trkpt>
      <trkpt lat="44.18446" lon="5.08167">
        <ele>601.44</ele>
        <time>2018-01-15T12:07:50Z</time>
      </trkpt>
      <trkpt lat="44.18447" lon="5.08167">
        <ele>601.44</ele>
        <time>2018-01-15T12:08:20Z</time>
      </trkpt>
      <trkpt lat="44.18446" lon="5.08166">
        <ele>601.44</ele>
        <time>2018-01-15T12:08:50Z</time>
      </trkpt>
      <trkpt lat="44.18448" lon="5.08168">
        <ele>601.44</ele>
        <time>2018-01-15T12:09:20Z</time>
      </trkpt>
      <trkpt lat="44.18448" lon="5.08166">
        <ele>601.44</ele>
        <time>2018-01-15T12:09:50Z</time>
      </trkpt>
      <trkpt lat="44.18449" lon="5.08167">
        <ele>601.44</ele>
        <time>2018-01-15T12:10:20Z</time>
      </trkpt>
      <trkpt lat="44.18451" lon="5.0817">
        <ele>601.44</ele>
        <time>2018-01-15T12:10:50Z</time>
      </trkpt>
      <trkpt lat="44.18451" lon="5.0817">
        <ele>601.44</ele>
        <time>2018-01-15T12:11:20Z</time>
      </trkpt>
      <trkpt lat="44.1845" lon="5.08168">
        <ele>601.44</ele>
        <time>2018-01-15T12:11:50Z</time>
      </trkpt>
      <trkpt lat="44.18449" lon="5.08167">
        <ele>601.44</ele>
        <time>2018-01-15T12:12:20Z</time>
      </trkpt>
      <trkpt lat="44.18449" lon="5.08168">
        <ele>601.44</ele>
        <time>2018-01-15T12:12:50Z</time>
      </trkpt>
      <trkpt lat="44.18449" lon="5.08168">
        <ele>601.44</ele>
        <time>2018-01-15T12:13:20Z</time>
      </trkpt>
      <trkpt lat="44.1845" lon="5.08168">
        <ele>601.44</ele>
        <time>2018-01-15T12:13:50Z</time>
      </trkpt>
      <trkpt lat="44.1845" lon="5.08169">
        <ele>601.44</ele>
        <time>2018-01-15T12:14:20Z</time>
      </trkpt>
      <trkpt lat="44.18449" lon="5.08168">
        <ele>601.44</ele>
        <time>2018-01-15T12:14:50Z</time>
      </trkpt>
      <trkpt lat="44.18449" lon="5.08168">
        <ele>601.44</ele>
        <time>2018-01-15T12:15:20Z</time>
      </trkpt>
      <trkpt lat="44.18449" lon="5.08168">
        <ele>601.44</ele>
        <time>2018-01-15T12:15:50Z</time>
      </trkpt>
      <trkpt lat="44.18449" lon="5.08167">
        <ele>601.44</ele>
        <time>2018-01-15T12:16:20Z</time>
      </trkpt>
      <trkpt lat="44.18449" lon="5.08167">
        <ele>601.44</ele>
        <time>2018-01-15T12:16:50Z</time>
      </trkpt>
      <trkpt lat="44.18448" lon="5.08167">
        <ele>601.44</ele>
        <time>2018-01-15T12:17:20Z</time>
      </trkpt>
      <trkpt lat="44.18448" lon="5.08166">
        <ele>601.44</ele>
        <time>2018-01-15T12:17:50Z</time>
      </trkpt>
      <trkpt lat="44.18448" lon="5.08166">
        <ele>601.44</ele>
        <time>2018-01-15T12:18:20Z</time>
      </trkpt>
      <trkpt lat="44.18447" lon="5.08167">
        <ele>601.44</ele>
        <time>2018-01-15T12:18:50Z</time>
      </trkpt>
      <trkpt lat="44.18447" lon="5.08167">
        <ele>601.44</ele>
        <time>2018-01-15T12:19:20Z</time>
      </trkpt>
      <trkpt lat="44.18448" lon="5.08167">
        <ele>601.44</ele>
        <time>2018-01-15T12:19:50Z</time>
      </trkpt>
      <trkpt lat="44.18449" lon="5.08167">
        <ele>601.44</ele>
        <time>2018-01-15T12:20:20Z</time>
      </trkpt>
      <trkpt lat="44.18449" lon="5.08167">
        <ele>601.44</ele>
        <time>2018-01-15T12:20:50Z</time>
      </trkpt>
      <trkpt lat="44.18448" lon="5.08169">
        <ele>601.44</ele>
        <time>2018-01-15T12:21:20Z</time>
      </trkpt>
      <trkpt lat="44.18449" lon="5.08169">
        <ele>601.44</ele>
        <time>2018-01-15T12:21:50Z</time>
      </trkpt>
      <trkpt lat="44.18448" lon="5.08169">
        <ele>601.44</ele>
        <time>2018-01-15T12:22:20Z</time>
      </trkpt>
      <trkpt lat="44.18448" lon="5.08169">
        <ele>601.44</ele>
        <time>2018-01-15T12:22:50Z</time>
      </trkpt>
      <trkpt lat="44.18447" lon="5.08169">
        <ele>601.44</ele>
        <time>2018-01-15T12:23:20Z</time>
      </trkpt>
      <trkpt lat="44.18448" lon="5.08169">
        <ele>601.44</ele>
        <time>2018-01-15T12:23:50Z</time>
      </trkpt>
      <trkpt lat="44.18448" lon="5.08169">
        <ele>601.44</ele>
        <time>2018-01-15T12:24:20Z</time>
      </trkpt>
      <trkpt lat="44.18447" lon="5.08168">
        <ele>601.44</ele>
        <time>2018-01-15T12:24:50Z</time>
      </trkpt>
      <trkpt lat="44.18447" lon="5.08168">
        <ele>601.44</ele>
        <time>2018-01-15T12:25:20Z</time>
      </trkpt>
      <trkpt lat="44.18448" lon="5.08168">
        <ele>601.44</ele>
        <time>2018-01-15T12:25:50Z</time>
      </trkpt>
      <trkpt lat="44.18448" lon="5.08168">
        <ele>601.44</ele>
        <time>2018-01-15T12:26:20Z</time>
      </trkpt>
      <trkpt lat="44.18447" lon="5.08168">
        <ele>601.44</ele>
        <time>2018-01-15T12:26:50Z</time>
      </trkpt>
      <trkpt lat="44.18447" lon="5.08168">
        <ele>601.44</ele>
        <time>2018-01-15T12:27:20Z</time>
      </trkpt>
      <trkpt lat="44.18447" lon="5.08168">
        <ele>601.44</ele>
        <time>2018-01-15T12:27:50Z</time>
      </trkpt>
      <trkpt lat="44.18447" lon="5.08167">
        <ele>601.44</ele>
        <time>2018-01-15T12:28:20Z</time>
      </trkpt>
      <trkpt lat="44.18447" lon="5.08167">
        <ele>601.44</ele>
        <time>2018-01-15T12:28:50Z</time>
      </trkpt>
      <trkpt lat="44.18447" lon="5.08166">
        <ele>601.44</ele>
        <time>2018-01-15T12:29:20Z</time>
      </trkpt>
      <trkpt lat="44.18447" lon="5.08167">
        <ele>601.44</ele>
        <time>2018-01-15T12:29:50Z</time>
      </trkpt>
      <trkpt lat="44.18447" lon="5.08167">
        <ele>601.44</ele>
        <time>2018-01-15T12:30:20Z</time>
      </trkpt>
      <trkpt lat="44.18447" lon="5.08167">
        <ele>601.44</ele>
        <time>2018-01-15T12:30:50Z</time>
      </trkpt>
      <trkpt lat="44.18446" lon="5.08167">
        <ele>601.44</ele>
        <time>2018-01-15T12:31:20Z</time>
      </trkpt>
      <trkpt lat="44.18445" lon="5.08167">
        <ele>601.44</ele>
        <time>2018-01-15T12:31:50Z</time>
      </trkpt>
      <trkpt lat="44.18445" lon="5.08166">
        <ele>601.44</ele>
        <time>2018-01-15T12:32:20Z</time>
      </trkpt>
      <trkpt lat="44.18447" lon="5.08164">
        <ele>601.44</ele>
        <time>2018-01-15T12:32:50Z</time>
      </trkpt>
      <trkpt lat="44.18455" lon="5.08135">
        <ele>608.17</ele>
        <time>2018-01-15T12:33:20Z</time>
      </trkpt>
      <trkpt lat="44.18462" lon="5.08104">
        <ele>613.94</ele>
        <time>2018-01-15T12:33:50Z</time>
      </trkpt>
      <trkpt lat="44.18453" lon="5.08088">
        <ele>614.42</ele>
        <time>2018-01-15T12:34:20Z</time>
      </trkpt>
      <trkpt lat="44.18453" lon="5.08089">
        <ele>614.42</ele>
        <time>2018-01-15T12:34:50Z</time>
      </trkpt>
      <trkpt lat="44.18451" lon="5.0809">
        <ele>614.42</ele>
        <time>2018-01-15T12:35:20Z</time>
      </trkpt>
      <trkpt lat="44.1845" lon="5.0809">
        <ele>614.42</ele>
        <time>2018-01-15T12:35:50Z</time>
      </trkpt>
      <trkpt lat="44.18424" lon="5.08079">
        <ele>614.42</ele>
        <time>2018-01-15T12:36:20Z</time>
      </trkpt>
      <trkpt lat="44.18399" lon="5.08063">
        <ele>611.06</ele>
        <time>2018-01-15T12:36:50Z</time>
      </trkpt>
      <trkpt lat="44.18398" lon="5.08063">
        <ele>610.57</ele>
        <time>2018-01-15T12:37:20Z</time>
      </trkpt>
      <trkpt lat="44.18399" lon="5.08062">
        <ele>610.57</ele>
        <time>2018-01-15T12:37:50Z</time>
      </trkpt>
      <trkpt lat="44.18398" lon="5.08064">
        <ele>610.57</ele>
        <time>2018-01-15T12:38:20Z</time>
      </trkpt>
      <trkpt lat="44.18398" lon="5.08064">
        <ele>610.57</ele>
        <time>2018-01-15T12:38:50Z</time>
      </trkpt>
      <trkpt lat="44.18396" lon="5.08063">
        <ele>610.57</ele>
        <time>2018-01-15T12:39:20Z</time>
      </trkpt>
      <trkpt lat="44.18394" lon="5.08064">
        <ele>610.57</ele>
        <time>2018-01-15T12:39:50Z</time>
      </trkpt>
      <trkpt lat="44.18369" lon="5.08065">
        <ele>608.17</ele>
        <time>2018-01-15T12:40:20Z</time>
      </trkpt>
      <trkpt lat="44.18344" lon="5.08063">
        <ele>606.25</ele>
        <time>2018-01-15T12:40:50Z</time>
      </trkpt>
      <trkpt lat="44.18316" lon="5.0807">
        <ele>602.88</ele>
        <time>2018-01-15T12:41:20Z</time>
      </trkpt>
      <trkpt lat="44.18297" lon="5.08061">
        <ele>600.96</ele>
        <time>2018-01-15T12:41:50Z</time>
      </trkpt>
      <trkpt lat="44.18273" lon="5.08051">
        <ele>598.56</ele>
        <time>2018-01-15T12:42:20Z</time>
      </trkpt>
      <trkpt lat="44.18248" lon="5.08052">
        <ele>596.64</ele>
        <time>2018-01-15T12:42:50Z</time>
      </trkpt>
      <trkpt lat="44.18225" lon="5.08046">
        <ele>592.31</ele>
        <time>2018-01-15T12:43:20Z</time>
      </trkpt>
      <trkpt lat="44.18212" lon="5.08031">
        <ele>587.98</ele>
        <time>2018-01-15T12:43:50Z</time>
      </trkpt>
      <trkpt lat="44.18198" lon="5.08014">
        <ele>583.18</ele>
        <time>2018-01-15T12:44:20Z</time>
      </trkpt>
      <trkpt lat="44.18183" lon="5.07999">
        <ele>578.37</ele>
        <time>2018-01-15T12:44:50Z</time>
      </trkpt>
      <trkpt lat="44.18174" lon="5.07981">
        <ele>573.56</ele>
        <time>2018-01-15T12:45:20Z</time>
      </trkpt>
      <trkpt lat="44.18161" lon="5.07972">
        <ele>569.72</ele>
        <time>2018-01-15T12:45:50Z</time>
      </trkpt>
      <trkpt lat="44.18145" lon="5.07972">
        <ele>564.91</ele>
        <time>2018-01-15T12:46:20Z</time>
      </trkpt>
      <trkpt lat="44.18137" lon="5.07952">
        <ele>560.59</ele>
        <time>2018-01-15T12:46:50Z</time>
      </trkpt>
      <trkpt lat="44.18129" lon="5.07936">
        <ele>554.82</ele>
        <time>2018-01-15T12:47:20Z</time>
      </trkpt>
      <trkpt lat="44.18107" lon="5.07931">
        <ele>550.01</ele>
        <time>2018-01-15T12:47:50Z</time>
      </trkpt>
      <trkpt lat="44.18098" lon="5.07912">
        <ele>545.2</ele>
        <time>2018-01-15T12:48:20Z</time>
      </trkpt>
      <trkpt lat="44.1808" lon="5.07891">
        <ele>540.88</ele>
        <time>2018-01-15T12:48:50Z</time>
      </trkpt>
      <trkpt lat="44.18063" lon="5.07866">
        <ele>536.07</ele>
        <time>2018-01-15T12:49:20Z</time>
      </trkpt>
      <trkpt lat="44.18048" lon="5.07853">
        <ele>530.79</ele>
        <time>2018-01-15T12:49:50Z</time>
      </trkpt>
      <trkpt lat="44.18038" lon="5.0784">
        <ele>525.02</ele>
        <time>2018-01-15T12:50:20Z</time>
      </trkpt>
      <trkpt lat="44.18021" lon="5.07847">
        <ele>521.17</ele>
        <time>2018-01-15T12:50:50Z</time>
      </trkpt>
      <trkpt lat="44.18009" lon="5.07859">
        <ele>515.88</ele>
        <time>2018-01-15T12:51:20Z</time>
      </trkpt>
      <trkpt lat="44.18004" lon="5.07859">
        <ele>513.48</ele>
        <time>2018-01-15T12:51:50Z</time>
      </trkpt>
      <trkpt lat="44.18004" lon="5.07858">
        <ele>512.52</ele>
        <time>2018-01-15T12:52:20Z</time>
      </trkpt>
      <trkpt lat="44.18004" lon="5.07859">
        <ele>512.52</ele>
        <time>2018-01-15T12:52:50Z</time>
      </trkpt>
      <trkpt lat="44.18004" lon="5.07859">
        <ele>512.52</ele>
        <time>2018-01-15T12:53:20Z</time>
      </trkpt>
      <trkpt lat="44.18004" lon="5.07858">
        <ele>512.52</ele>
        <time>2018-01-15T12:53:50Z</time>
      </trkpt>
      <trkpt lat="44.18004" lon="5.07859">
        <ele>512.52</ele>
        <time>2018-01-15T12:54:20Z</time>
      </trkpt>
      <trkpt lat="44.18003" lon="5.07858">
        <ele>512.52</ele>
        <time>2018-01-15T12:54:50Z</time>
      </trkpt>
      <trkpt lat="44.18003" lon="5.07859">
        <ele>512.52</ele>
        <time>2018-01-15T12:55:20Z</time>
      </trkpt>
      <trkpt lat="44.18003" lon="5.0786">
        <ele>512.52</ele>
        <time>2018-01-15T12:55:50Z</time>
      </trkpt>
      <trkpt lat="44.18003" lon="5.07859">
        <ele>512.52</ele>
        <time>2018-01-15T12:56:20Z</time>
      </trkpt>
      <trkpt lat="44.18004" lon="5.07859">
        <ele>512.52</ele>
        <time>2018-01-15T12:56:50Z</time>
      </trkpt>
      <trkpt lat="44.18005" lon="5.07859">
        <ele>512.52</ele>
        <time>2018-01-15T12:57:20Z</time>
      </trkpt>
      <trkpt lat="44.18005" lon="5.07859">
        <ele>512.52</ele>
        <time>2018-01-15T12:57:50Z</time>
      </trkpt>
      <trkpt lat="44.18005" lon="5.07859">
        <ele>512.52</ele>
        <time>2018-01-15T12:58:20Z</time>
      </trkpt>
      <trkpt lat="44.18006" lon="5.07858">
        <ele>512.52</ele>
        <time>2018-01-15T12:58:50Z</time>
      </trkpt>
      <trkpt lat="44.18004" lon="5.07857">
        <ele>512.52</ele>
        <time>2018-01-15T12:59:20Z</time>
      </trkpt>
      <trkpt lat="44.18006" lon="5.07857">
        <ele>512.52</ele>
        <time>2018-01-15T12:59:50Z</time>
      </trkpt>
      <trkpt lat="44.18003" lon="5.07858">
        <ele>512.52</ele>
        <time>2018-01-15T13:00:20Z</time>
      </trkpt>
      <trkpt lat="44.18004" lon="5.07858">
        <ele>512.52</ele>
        <time>2018-01-15T13:00:50Z</time>
      </trkpt>
      <trkpt lat="44.18005" lon="5.07858">
        <ele>512.52</ele>
        <time>2018-01-15T13:01:20Z</time>
      </trkpt>
      <trkpt lat="44.18007" lon="5.07858">
        <ele>512.52</ele>
        <time>2018-01-15T13:01:50Z</time>
      </trkpt>
      <trkpt lat="44.18006" lon="5.07857">
        <ele>512.52</ele>
        <time>2018-01-15T13:02:20Z</time>
      </trkpt>
      <trkpt lat="44.18004" lon="5.07857">
        <ele>512.52</ele>
        <time>2018-01-15T13:02:50Z</time>
      </trkpt>
      <trkpt lat="44.18004" lon="5.07857">
        <ele>512.52</ele>
        <time>2018-01-15T13:03:19Z</time>
      </trkpt>
      <trkpt lat="44.18004" lon="5.07856">
        <ele>512.52</ele>
        <time>2018-01-15T13:03:50Z</time>
      </trkpt>
      <trkpt lat="44.18005" lon="5.07855">
        <ele>512.52</ele>
        <time>2018-01-15T13:04:20Z</time>
      </trkpt>
      <trkpt lat="44.18005" lon="5.07853">
        <ele>512.52</ele>
        <time>2018-01-15T13:04:50Z</time>
      </trkpt>
      <trkpt lat="44.18006" lon="5.07844">
        <ele>512.52</ele>
        <time>2018-01-15T13:05:20Z</time>
      </trkpt>
      <trkpt lat="44.18024" lon="5.07814">
        <ele>513.96</ele>
        <time>2018-01-15T13:05:50Z</time>
      </trkpt>
      <trkpt lat="44.18054" lon="5.07797">
        <ele>515.4</ele>
        <time>2018-01-15T13:06:20Z</time>
      </trkpt>
      <trkpt lat="44.18093" lon="5.07799">
        <ele>515.4</ele>
        <time>2018-01-15T13:06:49Z</time>
      </trkpt>
      <trkpt lat="44.18129" lon="5.07809">
        <ele>515.4</ele>
        <time>2018-01-15T13:07:20Z</time>
      </trkpt>
      <trkpt lat="44.18168" lon="5.07804">
        <ele>516.85</ele>
        <time>2018-01-15T13:07:50Z</time>
      </trkpt>
      <trkpt lat="44.18197" lon="5.078">
        <ele>520.21</ele>
        <time>2018-01-15T13:08:20Z</time>
      </trkpt>
      <trkpt lat="44.18226" lon="5.07799">
        <ele>523.09</ele>
        <time>2018-01-15T13:08:50Z</time>
      </trkpt>
      <trkpt lat="44.18252" lon="5.07795">
        <ele>525.5</ele>
        <time>2018-01-15T13:09:20Z</time>
      </trkpt>
      <trkpt lat="44.18279" lon="5.07796">
        <ele>526.46</ele>
        <time>2018-01-15T13:09:50Z</time>
      </trkpt>
      <trkpt lat="44.18306" lon="5.0779">
        <ele>527.9</ele>
        <time>2018-01-15T13:10:20Z</time>
      </trkpt>
      <trkpt lat="44.18302" lon="5.07751">
        <ele>531.27</ele>
        <time>2018-01-15T13:10:50Z</time>
      </trkpt>
      <trkpt lat="44.18314" lon="5.07716">
        <ele>535.59</ele>
        <time>2018-01-15T13:11:20Z</time>
      </trkpt>
      <trkpt lat="44.18322" lon="5.077">
        <ele>535.59</ele>
        <time>2018-01-15T13:11:50Z</time>
      </trkpt>
      <trkpt lat="44.1833" lon="5.07684">
        <ele>537.03</ele>
        <time>2018-01-15T13:12:20Z</time>
      </trkpt>
      <trkpt lat="44.18327" lon="5.07683">
        <ele>536.55</ele>
        <time>2018-01-15T13:12:50Z</time>
      </trkpt>
      <trkpt lat="44.18329" lon="5.07663">
        <ele>536.55</ele>
        <time>2018-01-15T13:13:20Z</time>
      </trkpt>
      <trkpt lat="44.18333" lon="5.07619">
        <ele>536.55</ele>
        <time>2018-01-15T13:13:50Z</time>
      </trkpt>
      <trkpt lat="44.1834" lon="5.07579">
        <ele>536.07</ele>
        <time>2018-01-15T13:14:20Z</time>
      </trkpt>
      <trkpt lat="44.18359" lon="5.0755">
        <ele>534.63</ele>
        <time>2018-01-15T13:14:50Z</time>
      </trkpt>
      <trkpt lat="44.18374" lon="5.0751">
        <ele>531.75</ele>
        <time>2018-01-15T13:15:20Z</time>
      </trkpt>
      <trkpt lat="44.18393" lon="5.07481">
        <ele>529.82</ele>
        <time>2018-01-15T13:15:50Z</time>
      </trkpt>
      <trkpt lat="44.18417" lon="5.07461">
        <ele>530.3</ele>
        <time>2018-01-15T13:16:20Z</time>
      </trkpt>
      <trkpt lat="44.18441" lon="5.0744">
        <ele>532.23</ele>
        <time>2018-01-15T13:16:50Z</time>
      </trkpt>
      <trkpt lat="44.18447" lon="5.07406">
        <ele>534.63</ele>
        <time>2018-01-15T13:17:20Z</time>
      </trkpt>
      <trkpt lat="44.18451" lon="5.07369">
        <ele>537.03</ele>
        <time>2018-01-15T13:17:50Z</time>
      </trkpt>
      <trkpt lat="44.18464" lon="5.07332">
        <ele>536.07</ele>
        <time>2018-01-15T13:18:20Z</time>
      </trkpt>
      <trkpt lat="44.18464" lon="5.07294">
        <ele>533.19</ele>
        <time>2018-01-15T13:18:50Z</time>
      </trkpt>
      <trkpt lat="44.18446" lon="5.07267">
        <ele>537.51</ele>
        <time>2018-01-15T13:19:20Z</time>
      </trkpt>
      <trkpt lat="44.18425" lon="5.07241">
        <ele>539.44</ele>
        <time>2018-01-15T13:19:50Z</time>
      </trkpt>
      <trkpt lat="44.18398" lon="5.07229">
        <ele>540.88</ele>
        <time>2018-01-15T13:20:20Z</time>
      </trkpt>
      <trkpt lat="44.18371" lon="5.07237">
        <ele>541.36</ele>
        <time>2018-01-15T13:20:50Z</time>
      </trkpt>
      <trkpt lat="44.18357" lon="5.07218">
        <ele>540.4</ele>
        <time>2018-01-15T13:21:20Z</time>
      </trkpt>
      <trkpt lat="44.18335" lon="5.07196">
        <ele>542.8</ele>
        <time>2018-01-15T13:21:50Z</time>
      </trkpt>
      <trkpt lat="44.18311" lon="5.07187">
        <ele>540.4</ele>
        <time>2018-01-15T13:22:20Z</time>
      </trkpt>
      <trkpt lat="44.18292" lon="5.07168">
        <ele>535.11</ele>
        <time>2018-01-15T13:22:50Z</time>
      </trkpt>
      <trkpt lat="44.18276" lon="5.07158">
        <ele>532.71</ele>
        <time>2018-01-15T13:23:20Z</time>
      </trkpt>
      <trkpt lat="44.18273" lon="5.07157">
        <ele>532.71</ele>
        <time>2018-01-15T13:23:50Z</time>
      </trkpt>
      <trkpt lat="44.1827" lon="5.07154">
        <ele>532.23</ele>
        <time>2018-01-15T13:24:20Z</time>
      </trkpt>
      <trkpt lat="44.18273" lon="5.07155">
        <ele>532.23</ele>
        <time>2018-01-15T13:24:50Z</time>
      </trkpt>
      <trkpt lat="44.18276" lon="5.07154">
        <ele>531.75</ele>
        <time>2018-01-15T13:25:20Z</time>
      </trkpt>
      <trkpt lat="44.18276" lon="5.07131">
        <ele>530.3</ele>
        <time>2018-01-15T13:25:50Z</time>
      </trkpt>
      <trkpt lat="44.18264" lon="5.07123">
        <ele>532.23</ele>
        <time>2018-01-15T13:26:20Z</time>
      </trkpt>
      <trkpt lat="44.18239" lon="5.07124">
        <ele>535.11</ele>
        <time>2018-01-15T13:26:50Z</time>
      </trkpt>
      <trkpt lat="44.18214" lon="5.07135">
        <ele>536.55</ele>
        <time>2018-01-15T13:27:20Z</time>
      </trkpt>
      <trkpt lat="44.18184" lon="5.07149">
        <ele>535.59</ele>
        <time>2018-01-15T13:27:50Z</time>
      </trkpt>
      <trkpt lat="44.18154" lon="5.07172">
        <ele>537.51</ele>
        <time>2018-01-15T13:28:20Z</time>
      </trkpt>
      <trkpt lat="44.18123" lon="5.07166">
        <ele>541.84</ele>
        <time>2018-01-15T13:28:50Z</time>
      </trkpt>
      <trkpt lat="44.18097" lon="5.07145">
        <ele>539.44</ele>
        <time>2018-01-15T13:29:20Z</time>
      </trkpt>
      <trkpt lat="44.18077" lon="5.07113">
        <ele>535.11</ele>
        <time>2018-01-15T13:29:50Z</time>
      </trkpt>
      <trkpt lat="44.18068" lon="5.07101">
        <ele>534.15</ele>
        <time>2018-01-15T13:30:20Z</time>
      </trkpt>
      <trkpt lat="44.1804" lon="5.0707">
        <ele>531.75</ele>
        <time>2018-01-15T13:30:50Z</time>
      </trkpt>
      <trkpt lat="44.18012" lon="5.07047">
        <ele>532.71</ele>
        <time>2018-01-15T13:31:20Z</time>
      </trkpt>
      <trkpt lat="44.17979" lon="5.07063">
        <ele>534.15</ele>
        <time>2018-01-15T13:31:50Z</time>
      </trkpt>
      <trkpt lat="44.17942" lon="5.07063">
        <ele>533.19</ele>
        <time>2018-01-15T13:32:20Z</time>
      </trkpt>
      <trkpt lat="44.17917" lon="5.07046">
        <ele>531.27</ele>
        <time>2018-01-15T13:32:50Z</time>
      </trkpt>
      <trkpt lat="44.17888" lon="5.07025">
        <ele>529.34</ele>
        <time>2018-01-15T13:33:20Z</time>
      </trkpt>
      <trkpt lat="44.17882" lon="5.07018">
        <ele>528.38</ele>
        <time>2018-01-15T13:33:50Z</time>
      </trkpt>
      <trkpt lat="44.17881" lon="5.07017">
        <ele>528.38</ele>
        <time>2018-01-15T13:34:20Z</time>
      </trkpt>
      <trkpt lat="44.17877" lon="5.07016">
        <ele>528.38</ele>
        <time>2018-01-15T13:34:50Z</time>
      </trkpt>
      <trkpt lat="44.17877" lon="5.07016">
        <ele>528.38</ele>
        <time>2018-01-15T13:35:20Z</time>
      </trkpt>
      <trkpt lat="44.17877" lon="5.07019">
        <ele>529.34</ele>
        <time>2018-01-15T13:35:50Z</time>
      </trkpt>
      <trkpt lat="44.17876" lon="5.07017">
        <ele>529.34</ele>
        <time>2018-01-15T13:36:20Z</time>
      </trkpt>
      <trkpt lat="44.17878" lon="5.07018">
        <ele>528.86</ele>
        <time>2018-01-15T13:36:50Z</time>
      </trkpt>
      <trkpt lat="44.17873" lon="5.07012">
        <ele>528.86</ele>
        <time>2018-01-15T13:37:20Z</time>
      </trkpt>
      <trkpt lat="44.1785" lon="5.06988">
        <ele>525.02</ele>
        <time>2018-01-15T13:37:50Z</time>
      </trkpt>
      <trkpt lat="44.17816" lon="5.06969">
        <ele>520.69</ele>
        <time>2018-01-15T13:38:20Z</time>
      </trkpt>
      <trkpt lat="44.17785" lon="5.06996">
        <ele>517.81</ele>
        <time>2018-01-15T13:38:50Z</time>
      </trkpt>
      <trkpt lat="44.17759" lon="5.07028">
        <ele>513</ele>
        <time>2018-01-15T13:39:20Z</time>
      </trkpt>
      <trkpt lat="44.17731" lon="5.07056">
        <ele>508.19</ele>
        <time>2018-01-15T13:39:50Z</time>
      </trkpt>
      <trkpt lat="44.17706" lon="5.07097">
        <ele>504.83</ele>
        <time>2018-01-15T13:40:20Z</time>
      </trkpt>
      <trkpt lat="44.17675" lon="5.07099">
        <ele>499.06</ele>
        <time>2018-01-15T13:40:50Z</time>
      </trkpt>
      <trkpt lat="44.17639" lon="5.0709">
        <ele>494.74</ele>
        <time>2018-01-15T13:41:20Z</time>
      </trkpt>
      <trkpt lat="44.17605" lon="5.07084">
        <ele>491.37</ele>
        <time>2018-01-15T13:41:50Z</time>
      </trkpt>
      <trkpt lat="44.17577" lon="5.071">
        <ele>492.33</ele>
        <time>2018-01-15T13:42:20Z</time>
      </trkpt>
      <trkpt lat="44.17553" lon="5.0709">
        <ele>491.85</ele>
        <time>2018-01-15T13:42:50Z</time>
      </trkpt>
      <trkpt lat="44.17518" lon="5.07077">
        <ele>490.41</ele>
        <time>2018-01-15T13:43:20Z</time>
      </trkpt>
      <trkpt lat="44.17481" lon="5.07076">
        <ele>487.05</ele>
        <time>2018-01-15T13:43:50Z</time>
      </trkpt>
      <trkpt lat="44.17441" lon="5.07077">
        <ele>484.16</ele>
        <time>2018-01-15T13:44:20Z</time>
      </trkpt>
      <trkpt lat="44.17403" lon="5.07077">
        <ele>481.28</ele>
        <time>2018-01-15T13:44:50Z</time>
      </trkpt>
      <trkpt lat="44.17367" lon="5.07085">
        <ele>478.39</ele>
        <time>2018-01-15T13:45:20Z</time>
      </trkpt>
      <trkpt lat="44.17348" lon="5.07042">
        <ele>475.99</ele>
        <time>2018-01-15T13:45:50Z</time>
      </trkpt>
      <trkpt lat="44.17322" lon="5.0701">
        <ele>473.11</ele>
        <time>2018-01-15T13:46:20Z</time>
      </trkpt>
      <trkpt lat="44.17306" lon="5.06968">
        <ele>468.3</ele>
        <time>2018-01-15T13:46:50Z</time>
      </trkpt>
      <trkpt lat="44.17288" lon="5.0693">
        <ele>461.57</ele>
        <time>2018-01-15T13:47:20Z</time>
      </trkpt>
      <trkpt lat="44.17271" lon="5.06883">
        <ele>457.72</ele>
        <time>2018-01-15T13:47:50Z</time>
      </trkpt>
      <trkpt lat="44.17239" lon="5.06874">
        <ele>454.84</ele>
        <time>2018-01-15T13:48:20Z</time>
      </trkpt>
      <trkpt lat="44.17232" lon="5.06878">
        <ele>453.4</ele>
        <time>2018-01-15T13:48:50Z</time>
      </trkpt>
      <trkpt lat="44.17232" lon="5.06877">
        <ele>453.88</ele>
        <time>2018-01-15T13:49:20Z</time>
      </trkpt>
      <trkpt lat="44.17204" lon="5.06882">
        <ele>451</ele>
        <time>2018-01-15T13:49:50Z</time>
      </trkpt>
      <trkpt lat="44.17165" lon="5.06889">
        <ele>447.63</ele>
        <time>2018-01-15T13:50:20Z</time>
      </trkpt>
      <trkpt lat="44.17127" lon="5.06894">
        <ele>443.79</ele>
        <time>2018-01-15T13:50:50Z</time>
      </trkpt>
      <trkpt lat="44.17119" lon="5.06894">
        <ele>442.82</ele>
        <time>2018-01-15T13:51:20Z</time>
      </trkpt>
      <trkpt lat="44.17098" lon="5.06908">
        <ele>438.98</ele>
        <time>2018-01-15T13:51:50Z</time>
      </trkpt>
      <trkpt lat="44.17076" lon="5.06939">
        <ele>433.21</ele>
        <time>2018-01-15T13:52:20Z</time>
      </trkpt>
      <trkpt lat="44.17064" lon="5.06978">
        <ele>428.89</ele>
        <time>2018-01-15T13:52:50Z</time>
      </trkpt>
      <trkpt lat="44.17041" lon="5.0701">
        <ele>425.04</ele>
        <time>2018-01-15T13:53:20Z</time>
      </trkpt>
      <trkpt lat="44.17024" lon="5.06991">
        <ele>421.19</ele>
        <time>2018-01-15T13:53:50Z</time>
      </trkpt>
      <trkpt lat="44.17007" lon="5.06951">
        <ele>418.79</ele>
        <time>2018-01-15T13:54:20Z</time>
      </trkpt>
      <trkpt lat="44.16987" lon="5.06912">
        <ele>416.87</ele>
        <time>2018-01-15T13:54:50Z</time>
      </trkpt>
      <trkpt lat="44.16962" lon="5.0688">
        <ele>414.47</ele>
        <time>2018-01-15T13:55:20Z</time>
      </trkpt>
      <trkpt lat="44.16927" lon="5.06859">
        <ele>412.54</ele>
        <time>2018-01-15T13:55:50Z</time>
      </trkpt>
      <trkpt lat="44.16892" lon="5.06844">
        <ele>410.62</ele>
        <time>2018-01-15T13:56:20Z</time>
      </trkpt>
      <trkpt lat="44.16859" lon="5.06841">
        <ele>410.14</ele>
        <time>2018-01-15T13:56:50Z</time>
      </trkpt>
      <trkpt lat="44.16853" lon="5.06846">
        <ele>410.62</ele>
        <time>2018-01-15T13:57:20Z</time>
      </trkpt>
      <trkpt lat="44.16853" lon="5.06857">
        <ele>409.18</ele>
        <time>2018-01-15T13:57:43Z</time>
      </trkpt>
    </trkseg>
  </trk>
</gpx>